Time,TemperatureF,DewpointF,PressureIn,WindDirection,WindDirectionDegrees,WindSpeedMPH,WindSpeedGustMPH,Humidity,HourlyPrecipIn,Conditions,Clouds,dailyrainin,SoftwareType,DateUTC
2013-09-12 00:00:00,71.8,69.3,30.00,WNW,299,0.0,0.0,92,0.01,RA,,0.00,WeatherDisplay:10.37,2013-09-12 04:00:00,
2013-09-12 00:01:00,71.8,69.3,30.00,WNW,299,0.0,0.0,92,0.01,RA,,0.00,WeatherDisplay:10.37,2013-09-12 04:01:00,
2013-09-12 00:06:00,71.7,69.3,30.00,SW,235,0.0,0.0,92,0.02,RA,,0.01,WeatherDisplay:10.37,2013-09-12 04:06:00,
2013-09-12 00:07:00,71.7,69.3,30.00,SW,235,0.0,0.0,92,0.02,RA,,0.01,WeatherDisplay:10.37,2013-09-12 04:07:00,
2013-09-12 00:11:00,71.8,69.3,29.99,SW,235,0.0,0.0,92,0.01,RA,,0.02,WeatherDisplay:10.37,2013-09-12 04:11:00,
2013-09-12 00:12:00,71.7,69.3,29.99,SW,228,0.0,0.0,92,0.01,RA,,0.02,WeatherDisplay:10.37,2013-09-12 04:12:00,
2013-09-12 00:16:00,71.8,69.7,29.99,SW,229,0.0,0.0,93,0.02,RA,,0.03,WeatherDisplay:10.37,2013-09-12 04:16:00,
2013-09-12 00:17:00,71.8,69.7,29.99,SW,229,0.0,0.0,93,0.02,RA,,0.03,WeatherDisplay:10.37,2013-09-12 04:17:00,
2013-09-12 00:18:00,71.8,69.7,29.99,SW,229,0.0,0.0,93,0.02,RA,,0.03,WeatherDisplay:10.37,2013-09-12 04:18:00,
2013-09-12 00:21:00,71.7,69.6,29.99,SW,229,0.0,0.0,93,0.02,RA,,0.03,WeatherDisplay:10.37,2013-09-12 04:21:00,
2013-09-12 00:22:00,71.7,69.6,29.99,SW,229,0.0,0.0,93,0.02,RA,,0.03,WeatherDisplay:10.37,2013-09-12 04:22:00,
2013-09-12 00:23:00,71.7,69.6,29.98,SW,229,0.0,0.0,93,0.02,,,0.03,WeatherDisplay:10.37,2013-09-12 04:23:00,
2013-09-12 00:26:00,71.7,69.6,29.98,SW,229,0.0,0.0,93,0.02,CLR,,0.03,WeatherDisplay:10.37,2013-09-12 04:26:00,
2013-09-12 00:27:00,71.7,69.6,29.99,SW,229,0.0,0.0,93,0.02,CLR,,0.03,WeatherDisplay:10.37,2013-09-12 04:27:00,
2013-09-12 00:28:00,71.7,69.6,29.99,SW,229,0.0,0.0,93,0.02,CLR,,0.03,WeatherDisplay:10.37,2013-09-12 04:28:00,
2013-09-12 00:31:00,71.6,69.5,29.99,SW,229,0.0,0.0,93,0.02,CLR,,0.03,WeatherDisplay:10.37,2013-09-12 04:31:00,
2013-09-12 00:32:00,71.5,69.4,29.99,West,260,0.0,0.0,93,0.02,CLR,,0.03,WeatherDisplay:10.37,2013-09-12 04:32:00,
2013-09-12 00:33:00,71.5,69.4,29.99,West,263,0.1,1.1,93,0.02,CLR,,0.03,WeatherDisplay:10.37,2013-09-12 04:33:00,
2013-09-12 00:36:00,71.5,69.4,29.99,West,273,0.1,1.1,93,0.02,CLR,,0.03,WeatherDisplay:10.37,2013-09-12 04:36:00,
2013-09-12 00:37:00,71.5,69.4,29.99,West,271,0.2,1.1,93,0.02,CLR,,0.03,WeatherDisplay:10.37,2013-09-12 04:37:00,
2013-09-12 00:38:00,71.5,69.4,29.99,West,271,0.0,0.0,93,0.02,CLR,,0.03,WeatherDisplay:10.37,2013-09-12 04:38:00,
2013-09-12 00:39:00,71.5,69.4,29.99,West,271,0.0,0.0,93,0.02,CLR,,0.03,WeatherDisplay:10.37,2013-09-12 04:39:00,
2013-09-12 00:41:00,71.5,69.4,29.99,West,271,0.0,0.0,93,0.02,CLR,,0.03,WeatherDisplay:10.37,2013-09-12 04:41:00,
2013-09-12 00:42:00,71.5,69.4,29.99,West,271,0.0,0.0,93,0.02,CLR,,0.03,WeatherDisplay:10.37,2013-09-12 04:42:00,
2013-09-12 00:43:00,71.5,69.4,29.99,West,271,0.0,0.0,93,0.02,CLR,,0.03,WeatherDisplay:10.37,2013-09-12 04:43:00,
2013-09-12 00:44:00,71.5,69.4,29.99,WSW,244,0.1,1.1,93,0.02,CLR,,0.03,WeatherDisplay:10.37,2013-09-12 04:44:00,
2013-09-12 00:46:00,71.5,69.4,29.99,WSW,241,0.0,1.1,93,0.02,CLR,,0.03,WeatherDisplay:10.37,2013-09-12 04:46:00,
2013-09-12 00:47:00,71.5,69.4,29.99,WSW,241,0.0,0.0,93,0.02,CLR,,0.03,WeatherDisplay:10.37,2013-09-12 04:47:00,
2013-09-12 00:48:00,71.5,69.4,29.99,WSW,242,0.0,0.0,93,0.02,CLR,,0.03,WeatherDisplay:10.37,2013-09-12 04:48:00,
2013-09-12 00:50:00,71.5,69.1,29.99,WSW,245,0.2,1.1,92,0.02,CLR,,0.03,WeatherDisplay:10.37,2013-09-12 04:50:00,
2013-09-12 00:51:00,71.6,69.2,29.99,WSW,243,0.0,1.1,92,0.02,CLR,,0.03,WeatherDisplay:10.37,2013-09-12 04:51:00,
2013-09-12 00:52:00,71.6,69.2,29.99,WSW,247,0.0,0.0,92,0.02,CLR,,0.03,WeatherDisplay:10.37,2013-09-12 04:52:00,
2013-09-12 00:53:00,71.6,69.2,29.98,WSW,247,0.0,0.0,92,0.02,CLR,,0.03,WeatherDisplay:10.37,2013-09-12 04:53:00,
2013-09-12 00:55:00,71.5,69.1,29.98,WSW,252,0.0,0.0,92,0.02,CLR,,0.03,WeatherDisplay:10.37,2013-09-12 04:55:00,
2013-09-12 00:56:00,71.6,69.2,29.98,WSW,252,0.0,0.0,92,0.01,CLR,,0.03,WeatherDisplay:10.37,2013-09-12 04:56:00,
2013-09-12 00:57:00,71.5,69.1,29.98,WSW,252,0.0,0.0,92,0.01,CLR,,0.03,WeatherDisplay:10.37,2013-09-12 04:57:00,
2013-09-12 00:58:00,71.5,69.1,29.98,WSW,252,0.0,0.0,92,0.01,CLR,,0.03,WeatherDisplay:10.37,2013-09-12 04:58:00,
2013-09-12 00:59:00,71.5,69.1,29.98,WSW,252,0.0,0.0,92,0.01,CLR,,0.03,WeatherDisplay:10.37,2013-09-12 04:59:00,
2013-09-12 01:00:00,71.5,68.7,29.98,WSW,252,0.0,0.0,91,0.03,CLR,,0.03,WeatherDisplay:10.37,2013-09-12 05:00:00,
2013-09-12 01:01:00,71.5,68.7,29.98,WNW,292,0.0,0.0,91,0.03,CLR,,0.03,WeatherDisplay:10.37,2013-09-12 05:01:00,
2013-09-12 01:03:00,71.5,69.1,29.98,WNW,294,0.0,0.0,92,0.02,CLR,,0.03,WeatherDisplay:10.37,2013-09-12 05:03:00,
2013-09-12 01:04:00,71.5,69.1,29.98,WNW,294,0.0,0.0,92,0.02,CLR,,0.03,WeatherDisplay:10.37,2013-09-12 05:04:00,
2013-09-12 01:06:00,71.4,69.0,29.98,WNW,294,0.0,0.0,92,0.03,RA,,0.04,WeatherDisplay:10.37,2013-09-12 05:06:00,
2013-09-12 01:08:00,71.3,68.9,29.98,WNW,294,0.0,0.0,92,0.03,RA,,0.04,WeatherDisplay:10.37,2013-09-12 05:08:00,
2013-09-12 01:09:00,71.3,68.9,29.98,WNW,294,0.0,0.0,92,0.03,RA,,0.04,WeatherDisplay:10.37,2013-09-12 05:09:00,
2013-09-12 01:11:00,71.2,68.8,29.98,WNW,294,0.0,0.0,92,0.02,RA,,0.04,WeatherDisplay:10.37,2013-09-12 05:11:00,
2013-09-12 01:12:00,71.2,68.8,29.98,WNW,294,0.0,0.0,92,0.02,RA,,0.04,WeatherDisplay:10.37,2013-09-12 05:12:00,
2013-09-12 01:14:00,71.2,68.8,29.98,WNW,289,0.0,0.0,92,0.01,RA,,0.04,WeatherDisplay:10.37,2013-09-12 05:14:00,
2013-09-12 01:15:00,71.1,68.7,29.98,West,259,0.1,1.1,92,0.01,RA,,0.04,WeatherDisplay:10.37,2013-09-12 05:15:00,
2013-09-12 01:16:00,71.0,68.6,29.98,West,259,0.1,1.1,92,0.01,,,0.04,WeatherDisplay:10.37,2013-09-12 05:16:00,
2013-09-12 01:17:00,71.0,68.6,29.98,West,266,0.1,1.1,92,0.01,,,0.04,WeatherDisplay:10.37,2013-09-12 05:17:00,
2013-09-12 01:19:00,71.0,68.6,29.98,WSW,247,0.3,1.1,92,0.01,CLR,,0.04,WeatherDisplay:10.37,2013-09-12 05:19:00,
2013-09-12 01:21:00,70.9,68.5,29.98,WSW,246,0.2,1.1,92,0.01,CLR,,0.04,WeatherDisplay:10.37,2013-09-12 05:21:00,
2013-09-12 01:22:00,70.9,68.8,29.98,SW,230,0.3,1.1,93,0.01,CLR,,0.04,WeatherDisplay:10.37,2013-09-12 05:22:00,
2013-09-12 01:24:00,70.8,68.7,29.98,SW,230,0.6,2.3,93,0.02,RA,,0.05,WeatherDisplay:10.37,2013-09-12 05:24:00,
2013-09-12 01:27:00,70.7,68.6,29.98,SSW,209,0.2,1.1,93,0.03,RA,,0.06,WeatherDisplay:10.37,2013-09-12 05:27:00,
2013-09-12 01:29:00,70.7,68.6,29.98,SW,229,0.1,1.1,93,0.03,RA,,0.06,WeatherDisplay:10.37,2013-09-12 05:29:00,
2013-09-12 01:32:00,70.6,68.5,29.98,SW,232,0.1,1.1,93,0.03,RA,,0.06,WeatherDisplay:10.37,2013-09-12 05:32:00,
2013-09-12 01:33:00,70.6,68.5,29.98,SW,235,0.2,1.1,93,0.03,RA,,0.06,WeatherDisplay:10.37,2013-09-12 05:33:00,
2013-09-12 01:34:00,70.5,68.4,29.98,WSW,248,0.4,1.1,93,0.03,RA,,0.06,WeatherDisplay:10.37,2013-09-12 05:34:00,
2013-09-12 01:37:00,70.5,68.4,29.98,West,260,0.3,1.1,93,0.03,,,0.06,WeatherDisplay:10.37,2013-09-12 05:37:00,
2013-09-12 01:38:00,70.5,68.4,29.98,WSW,253,0.3,1.1,93,0.03,CLR,,0.06,WeatherDisplay:10.37,2013-09-12 05:38:00,
2013-09-12 01:39:00,70.5,68.4,29.99,WSW,254,0.2,1.1,93,0.03,CLR,,0.06,WeatherDisplay:10.37,2013-09-12 05:39:00,
2013-09-12 01:43:00,70.4,68.6,29.99,SW,231,0.2,1.1,94,0.04,RA,,0.07,WeatherDisplay:10.37,2013-09-12 05:43:00,
2013-09-12 01:44:00,70.4,68.6,29.99,SW,228,0.0,1.1,94,0.05,RA,,0.08,WeatherDisplay:10.37,2013-09-12 05:44:00,
2013-09-12 01:45:00,70.4,68.6,29.99,SW,223,0.1,1.1,94,0.06,RA,,0.09,WeatherDisplay:10.37,2013-09-12 05:45:00,
2013-09-12 01:48:00,70.3,68.5,29.99,WSW,244,4.5,6.9,94,0.08,RA,,0.11,WeatherDisplay:10.37,2013-09-12 05:48:00,
2013-09-12 01:49:00,70.3,68.5,29.99,SW,231,3.4,5.8,94,0.08,RA,,0.11,WeatherDisplay:10.37,2013-09-12 05:49:00,
2013-09-12 01:50:00,70.2,68.4,29.99,WSW,238,5.3,7.0,94,0.08,RA,,0.11,WeatherDisplay:10.37,2013-09-12 05:50:00,
2013-09-12 01:53:00,70.1,68.3,29.99,WSW,252,7.6,11.5,94,0.09,RA,,0.13,WeatherDisplay:10.37,2013-09-12 05:53:00,
2013-09-12 01:54:00,70.1,68.3,29.99,SW,226,8.1,10.4,94,0.10,RA,,0.14,WeatherDisplay:10.37,2013-09-12 05:54:00,
2013-09-12 01:55:00,70.1,68.3,29.99,WSW,251,7.4,10.4,94,0.11,RA,,0.14,WeatherDisplay:10.37,2013-09-12 05:55:00,
2013-09-12 01:59:00,70.0,68.2,29.99,SW,232,11.1,13.8,94,0.13,RA,,0.16,WeatherDisplay:10.37,2013-09-12 05:59:00,
2013-09-12 02:00:00,70.0,68.2,29.99,SW,236,9.1,13.8,94,0.13,RA,,0.16,WeatherDisplay:10.37,2013-09-12 06:00:00,
2013-09-12 02:01:00,70.0,68.2,29.99,WSW,252,10.1,15.0,94,0.13,RA,,0.16,WeatherDisplay:10.37,2013-09-12 06:01:00,
2013-09-12 02:04:00,69.9,68.1,29.99,West,260,8.0,12.7,94,0.16,RA,,0.20,WeatherDisplay:10.37,2013-09-12 06:04:00,
2013-09-12 02:05:00,69.9,68.1,29.99,West,262,8.2,12.7,94,0.17,RA,,0.20,WeatherDisplay:10.37,2013-09-12 06:05:00,
2013-09-12 02:06:00,69.8,68.0,29.99,West,259,8.9,11.5,94,0.17,RA,,0.21,WeatherDisplay:10.37,2013-09-12 06:06:00,
2013-09-12 02:07:00,69.8,68.0,29.99,WSW,248,8.4,12.7,94,0.18,RA,,0.22,WeatherDisplay:10.37,2013-09-12 06:07:00,
2013-09-12 02:09:00,69.7,68.2,29.99,West,265,7.4,13.8,95,0.18,RA,,0.23,WeatherDisplay:10.37,2013-09-12 06:09:00,
2013-09-12 02:10:00,69.7,68.2,29.99,West,269,5.7,10.4,95,0.19,RA,,0.23,WeatherDisplay:10.37,2013-09-12 06:10:00,
2013-09-12 02:12:00,69.7,68.2,29.99,WSW,256,5.8,11.5,95,0.20,RA,,0.24,WeatherDisplay:10.37,2013-09-12 06:12:00,
2013-09-12 02:13:00,69.7,68.2,29.99,West,260,9.4,11.5,95,0.22,RA,,0.28,WeatherDisplay:10.37,2013-09-12 06:13:00,
2013-09-12 02:14:00,69.7,68.2,29.98,West,275,8.6,10.4,95,0.26,RA,,0.31,WeatherDisplay:10.37,2013-09-12 06:14:00,
2013-09-12 02:15:00,69.7,68.2,29.98,West,267,8.5,12.7,95,0.28,RA,,0.32,WeatherDisplay:10.37,2013-09-12 06:15:00,
2013-09-12 02:17:00,69.7,68.2,29.98,WSW,254,7.5,11.5,95,0.29,RA,,0.34,WeatherDisplay:10.37,2013-09-12 06:17:00,
2013-09-12 02:18:00,69.7,68.2,29.98,WSW,258,4.9,8.1,95,0.30,RA,,0.34,WeatherDisplay:10.37,2013-09-12 06:18:00,
2013-09-12 02:20:00,69.7,68.2,29.98,West,265,3.7,7.0,95,0.31,RA,,0.35,WeatherDisplay:10.37,2013-09-12 06:20:00,
2013-09-12 02:22:00,69.6,68.1,29.98,West,277,2.6,6.9,95,0.32,RA,,0.36,WeatherDisplay:10.37,2013-09-12 06:22:00,
2013-09-12 02:23:00,69.6,68.1,29.98,WSW,257,2.8,4.6,95,0.31,RA,,0.37,WeatherDisplay:10.37,2013-09-12 06:23:00,
2013-09-12 02:25:00,69.6,68.1,29.98,West,267,4.9,8.1,95,0.32,RA,,0.37,WeatherDisplay:10.37,2013-09-12 06:25:00,
2013-09-12 02:27:00,69.5,68.0,29.98,WSW,257,4.2,6.9,95,0.31,RA,,0.37,WeatherDisplay:10.37,2013-09-12 06:27:00,
2013-09-12 02:28:00,69.5,68.3,29.98,West,277,2.3,5.8,96,0.31,RA,,0.37,WeatherDisplay:10.37,2013-09-12 06:28:00,
2013-09-12 02:29:00,69.5,68.3,29.98,West,269,3.0,6.0,96,0.31,RA,,0.38,WeatherDisplay:10.37,2013-09-12 06:29:00,
2013-09-12 02:30:00,69.5,68.3,29.98,West,273,2.2,5.8,96,0.32,RA,,0.38,WeatherDisplay:10.37,2013-09-12 06:30:00,
2013-09-12 02:33:00,69.5,68.0,29.98,West,259,3.6,5.8,95,0.33,RA,,0.39,WeatherDisplay:10.37,2013-09-12 06:33:00,
2013-09-12 02:34:00,69.5,68.0,29.98,West,260,3.5,9.2,95,0.33,RA,,0.39,WeatherDisplay:10.37,2013-09-12 06:34:00,
2013-09-12 02:35:00,69.5,68.0,29.97,WSW,256,5.0,9.2,95,0.33,RA,,0.40,WeatherDisplay:10.37,2013-09-12 06:35:00,
2013-09-12 02:36:00,69.5,68.3,29.97,WSW,244,5.7,9.2,96,0.33,RA,,0.40,WeatherDisplay:10.37,2013-09-12 06:36:00,
2013-09-12 02:39:00,69.5,68.3,29.97,WSW,242,4.7,7.0,96,0.34,RA,,0.41,WeatherDisplay:10.37,2013-09-12 06:39:00,
2013-09-12 02:40:00,69.5,68.3,29.97,WSW,253,6.4,8.1,96,0.35,RA,,0.41,WeatherDisplay:10.37,2013-09-12 06:40:00,
2013-09-12 02:41:00,69.5,68.3,29.97,SW,227,5.7,10.0,96,0.36,RA,,0.42,WeatherDisplay:10.37,2013-09-12 06:41:00,
2013-09-12 02:44:00,69.5,68.3,29.97,WSW,251,7.2,10.4,96,0.35,RA,,0.43,WeatherDisplay:10.37,2013-09-12 06:44:00,
2013-09-12 02:45:00,69.5,68.3,29.97,WSW,243,5.5,10.4,96,0.34,RA,,0.43,WeatherDisplay:10.37,2013-09-12 06:45:00,
2013-09-12 02:46:00,69.5,68.3,29.97,WSW,249,4.8,8.1,96,0.34,RA,,0.43,WeatherDisplay:10.37,2013-09-12 06:46:00,
2013-09-12 02:47:00,69.5,68.3,29.97,SW,228,7.2,8.1,96,0.33,RA,,0.43,WeatherDisplay:10.37,2013-09-12 06:47:00,
2013-09-12 02:50:00,69.5,68.3,29.97,SW,221,4.3,6.9,96,0.33,RA,,0.44,WeatherDisplay:10.37,2013-09-12 06:50:00,
2013-09-12 02:51:00,69.5,68.3,29.97,WSW,250,4.6,6.9,96,0.34,RA,,0.45,WeatherDisplay:10.37,2013-09-12 06:51:00,
2013-09-12 02:52:00,69.5,68.3,29.97,WSW,253,4.3,8.0,96,0.34,RA,,0.47,WeatherDisplay:10.37,2013-09-12 06:52:00,
2013-09-12 02:55:00,69.6,68.4,29.97,WSW,248,7.2,13.8,96,0.36,RA,,0.50,WeatherDisplay:10.37,2013-09-12 06:55:00,
2013-09-12 02:56:00,69.6,68.4,29.97,West,264,9.9,12.7,96,0.36,RA,,0.50,WeatherDisplay:10.37,2013-09-12 06:56:00,
2013-09-12 02:57:00,69.6,68.4,29.97,WSW,253,8.5,16.1,96,0.36,RA,,0.51,WeatherDisplay:10.37,2013-09-12 06:57:00,
2013-09-12 02:58:00,69.7,68.5,29.97,WSW,255,8.0,12.7,96,0.36,RA,,0.51,WeatherDisplay:10.37,2013-09-12 06:58:00,
2013-09-12 03:01:00,69.7,68.5,29.96,WSW,238,7.8,13.8,96,0.36,RA,,0.52,WeatherDisplay:10.37,2013-09-12 07:01:00,
2013-09-12 03:02:00,69.7,68.5,29.97,WSW,257,5.6,11.0,96,0.36,RA,,0.53,WeatherDisplay:10.37,2013-09-12 07:02:00,
2013-09-12 03:03:00,69.7,68.5,29.97,WSW,240,5.6,11.5,96,0.35,RA,,0.53,WeatherDisplay:10.37,2013-09-12 07:03:00,
2013-09-12 03:06:00,69.7,68.5,29.96,West,265,5.4,9.2,96,0.33,RA,,0.53,WeatherDisplay:10.37,2013-09-12 07:06:00,
2013-09-12 03:07:00,69.7,68.5,29.96,WSW,257,5.0,8.0,96,0.31,RA,,0.53,WeatherDisplay:10.37,2013-09-12 07:07:00,
2013-09-12 03:08:00,69.8,68.6,29.97,WSW,240,6.7,10.4,96,0.32,RA,,0.54,WeatherDisplay:10.37,2013-09-12 07:08:00,
2013-09-12 03:11:00,69.8,68.6,29.96,West,275,4.8,6.9,96,0.33,RA,,0.56,WeatherDisplay:10.37,2013-09-12 07:11:00,
2013-09-12 03:12:00,69.8,68.6,29.96,West,259,4.6,6.9,96,0.33,RA,,0.57,WeatherDisplay:10.37,2013-09-12 07:12:00,
2013-09-12 03:13:00,69.8,68.6,29.96,West,262,5.0,8.1,96,0.31,RA,,0.57,WeatherDisplay:10.37,2013-09-12 07:13:00,
2013-09-12 03:14:00,69.8,68.6,29.96,WSW,255,5.9,10.4,96,0.27,RA,,0.57,WeatherDisplay:10.37,2013-09-12 07:14:00,
2013-09-12 03:15:00,69.8,68.6,29.96,West,259,6.0,9.2,96,0.25,RA,,0.57,WeatherDisplay:10.37,2013-09-12 07:15:00,
2013-09-12 03:16:00,69.8,68.6,29.96,West,270,3.6,5.8,96,0.25,RA,,0.57,WeatherDisplay:10.37,2013-09-12 07:16:00,
2013-09-12 03:17:00,69.8,68.6,29.96,West,273,2.7,5.8,96,0.24,RA,,0.57,WeatherDisplay:10.37,2013-09-12 07:17:00,
2013-09-12 03:18:00,69.8,68.6,29.96,West,269,5.8,8.0,96,0.23,RA,,0.58,WeatherDisplay:10.37,2013-09-12 07:18:00,
2013-09-12 03:19:00,69.8,68.6,29.96,WSW,257,6.5,10.4,96,0.23,RA,,0.58,WeatherDisplay:10.37,2013-09-12 07:19:00,
2013-09-12 03:20:00,69.8,68.6,29.96,WSW,250,5.8,10.4,96,0.23,RA,,0.58,WeatherDisplay:10.37,2013-09-12 07:20:00,
2013-09-12 03:21:00,69.8,68.6,29.96,NW,319,5.6,8.1,96,0.22,RA,,0.58,WeatherDisplay:10.37,2013-09-12 07:21:00,
2013-09-12 03:23:00,69.8,68.6,29.96,West,269,8.5,11.5,96,0.22,RA,,0.58,WeatherDisplay:10.37,2013-09-12 07:23:00,
2013-09-12 03:24:00,69.8,68.6,29.96,WNW,284,6.0,11.5,96,0.21,RA,,0.58,WeatherDisplay:10.37,2013-09-12 07:24:00,
2013-09-12 03:25:00,69.9,68.7,29.96,West,268,6.0,8.1,96,0.21,RA,,0.58,WeatherDisplay:10.37,2013-09-12 07:25:00,
2013-09-12 03:26:00,69.9,68.7,29.96,WSW,257,4.6,5.8,96,0.21,RA,,0.59,WeatherDisplay:10.37,2013-09-12 07:26:00,
2013-09-12 03:28:00,69.8,68.6,29.96,WSW,248,5.8,9.2,96,0.22,RA,,0.59,WeatherDisplay:10.37,2013-09-12 07:28:00,
2013-09-12 03:30:00,69.9,68.7,29.96,West,263,6.0,9.0,96,0.00,RA,,0.59,WeatherDisplay:10.37,2013-09-12 07:30:00,
2013-09-12 03:31:00,69.9,68.7,29.96,West,261,7.2,9.2,96,0.21,RA,,0.59,WeatherDisplay:10.37,2013-09-12 07:31:00,
2013-09-12 03:32:00,69.8,68.6,29.96,West,261,6.0,9.2,96,0.21,RA,,0.60,WeatherDisplay:10.37,2013-09-12 07:32:00,
2013-09-12 03:33:00,69.8,68.6,29.96,West,267,5.3,8.1,96,0.22,RA,,0.61,WeatherDisplay:10.37,2013-09-12 07:33:00,
2013-09-12 03:34:00,69.8,68.6,29.96,SW,235,4.3,5.8,96,0.22,RA,,0.61,WeatherDisplay:10.37,2013-09-12 07:34:00,
2013-09-12 03:35:00,69.8,68.6,29.96,WSW,242,5.2,6.9,96,0.23,RA,,0.62,WeatherDisplay:10.37,2013-09-12 07:35:00,
2013-09-12 03:36:00,69.8,68.6,29.96,West,273,7.8,10.4,96,0.22,RA,,0.62,WeatherDisplay:10.37,2013-09-12 07:36:00,
2013-09-12 03:37:00,69.8,68.6,29.96,West,267,7.9,10.4,96,0.22,RA,,0.62,WeatherDisplay:10.37,2013-09-12 07:37:00,
2013-09-12 03:39:00,69.8,68.6,29.96,WSW,257,3.9,5.8,96,0.22,RA,,0.62,WeatherDisplay:10.37,2013-09-12 07:39:00,
2013-09-12 03:41:00,69.8,68.6,29.96,WSW,254,4.3,8.1,96,0.21,RA,,0.63,WeatherDisplay:10.37,2013-09-12 07:41:00,
2013-09-12 03:42:00,69.8,68.6,29.96,WSW,248,3.5,4.6,96,0.21,RA,,0.63,WeatherDisplay:10.37,2013-09-12 07:42:00,
2013-09-12 03:44:00,69.7,68.5,29.96,West,265,3.3,4.6,96,0.20,RA,,0.63,WeatherDisplay:10.37,2013-09-12 07:44:00,
2013-09-12 03:45:00,69.7,68.5,29.95,WSW,240,6.0,8.1,96,0.20,RA,,0.63,WeatherDisplay:10.37,2013-09-12 07:45:00,
2013-09-12 03:46:00,69.7,68.5,29.95,West,276,6.5,8.1,96,0.20,RA,,0.63,WeatherDisplay:10.37,2013-09-12 07:46:00,
2013-09-12 03:47:00,69.7,68.5,29.96,WSW,246,6.6,8.1,96,0.20,RA,,0.63,WeatherDisplay:10.37,2013-09-12 07:47:00,
2013-09-12 03:49:00,69.7,68.5,29.96,West,261,3.4,5.8,96,0.20,RA,,0.64,WeatherDisplay:10.37,2013-09-12 07:49:00,
2013-09-12 03:50:00,69.7,68.5,29.96,West,263,5.0,8.1,96,0.20,RA,,0.64,WeatherDisplay:10.37,2013-09-12 07:50:00,
2013-09-12 03:51:00,69.7,68.5,29.96,West,264,4.0,6.9,96,0.19,RA,,0.64,WeatherDisplay:10.37,2013-09-12 07:51:00,
2013-09-12 03:52:00,69.7,68.5,29.96,WSW,246,2.6,4.6,96,0.18,RA,,0.64,WeatherDisplay:10.37,2013-09-12 07:52:00,
2013-09-12 03:54:00,69.7,68.5,29.95,SW,234,1.5,3.5,96,0.15,RA,,0.64,WeatherDisplay:10.37,2013-09-12 07:54:00,
2013-09-12 03:55:00,69.7,68.5,29.95,WSW,258,4.0,4.0,96,0.14,RA,,0.64,WeatherDisplay:10.37,2013-09-12 07:55:00,
2013-09-12 03:56:00,69.7,68.5,29.95,West,265,2.6,6.9,96,0.14,RA,,0.64,WeatherDisplay:10.37,2013-09-12 07:56:00,
2013-09-12 03:57:00,69.7,68.5,29.95,WSW,239,2.9,3.5,96,0.14,RA,,0.64,WeatherDisplay:10.37,2013-09-12 07:57:00,
2013-09-12 03:58:00,69.7,68.5,29.95,West,260,1.6,3.5,96,0.13,RA,,0.64,WeatherDisplay:10.37,2013-09-12 07:58:00,
2013-09-12 03:59:00,69.7,68.5,29.95,West,267,1.0,4.0,96,0.13,,,0.64,WeatherDisplay:10.37,2013-09-12 07:59:00,
2013-09-12 04:01:00,69.6,68.4,29.95,West,267,1.0,3.5,96,0.12,CLR,,0.64,WeatherDisplay:10.37,2013-09-12 08:01:00,
2013-09-12 04:02:00,69.7,68.5,29.95,West,267,0.2,1.1,96,0.11,CLR,,0.64,WeatherDisplay:10.37,2013-09-12 08:02:00,
2013-09-12 04:03:00,69.6,68.4,29.95,West,267,0.1,1.1,96,0.11,CLR,,0.64,WeatherDisplay:10.37,2013-09-12 08:03:00,
2013-09-12 04:04:00,69.7,68.5,29.95,West,267,0.2,1.1,96,0.11,CLR,,0.64,WeatherDisplay:10.37,2013-09-12 08:04:00,
2013-09-12 04:06:00,69.6,68.4,29.95,West,267,0.0,1.1,96,0.12,RA,,0.65,WeatherDisplay:10.37,2013-09-12 08:06:00,
2013-09-12 04:07:00,69.6,68.4,29.95,West,267,0.0,1.1,96,0.12,RA,,0.65,WeatherDisplay:10.37,2013-09-12 08:07:00,
2013-09-12 04:08:00,69.6,68.4,29.94,West,267,0.9,1.1,96,0.11,RA,,0.65,WeatherDisplay:10.37,2013-09-12 08:08:00,
2013-09-12 04:09:00,69.6,68.4,29.94,West,267,1.1,2.3,96,0.10,RA,,0.65,WeatherDisplay:10.37,2013-09-12 08:09:00,
2013-09-12 04:12:00,69.6,68.4,29.94,WSW,246,2.9,3.5,96,0.08,RA,,0.65,WeatherDisplay:10.37,2013-09-12 08:12:00,
2013-09-12 04:14:00,69.6,68.4,29.94,WSW,246,1.5,2.3,96,0.08,RA,,0.65,WeatherDisplay:10.37,2013-09-12 08:14:00,
2013-09-12 04:15:00,69.6,68.4,29.94,WSW,246,1.5,3.5,96,0.08,,,0.65,WeatherDisplay:10.37,2013-09-12 08:15:00,
2013-09-12 04:17:00,69.6,68.4,29.94,SW,236,1.8,3.5,96,0.09,RA,,0.66,WeatherDisplay:10.37,2013-09-12 08:17:00,
2013-09-12 04:18:00,69.6,68.4,29.94,SW,229,1.7,3.5,96,0.09,RA,,0.66,WeatherDisplay:10.37,2013-09-12 08:18:00,
2013-09-12 04:19:00,69.6,68.4,29.94,SW,221,2.9,4.0,96,0.08,RA,,0.66,WeatherDisplay:10.37,2013-09-12 08:19:00,
2013-09-12 04:20:00,69.6,68.4,29.94,SW,218,3.4,3.5,96,0.08,RA,,0.66,WeatherDisplay:10.37,2013-09-12 08:20:00,
2013-09-12 04:22:00,69.6,68.4,29.94,SW,217,2.0,3.5,96,0.08,RA,,0.66,WeatherDisplay:10.37,2013-09-12 08:22:00,
2013-09-12 04:23:00,69.6,68.4,29.94,SW,217,1.3,3.5,96,0.08,RA,,0.66,WeatherDisplay:10.37,2013-09-12 08:23:00,
2013-09-12 04:24:00,69.6,68.4,29.94,SSW,202,2.2,4.0,96,0.08,RA,,0.66,WeatherDisplay:10.37,2013-09-12 08:24:00,
2013-09-12 04:25:00,69.6,68.4,29.94,SSW,202,2.6,3.5,96,0.08,RA,,0.66,WeatherDisplay:10.37,2013-09-12 08:25:00,
2013-09-12 04:26:00,69.6,68.4,29.94,SSW,202,1.0,3.5,96,0.08,,,0.66,WeatherDisplay:10.37,2013-09-12 08:26:00,
2013-09-12 04:27:00,69.6,68.4,29.94,SSW,202,1.5,2.0,96,0.07,,,0.66,WeatherDisplay:10.37,2013-09-12 08:27:00,
2013-09-12 04:28:00,69.6,68.4,29.94,SSW,202,1.6,2.0,96,0.07,,,0.66,WeatherDisplay:10.37,2013-09-12 08:28:00,
2013-09-12 04:29:00,69.5,68.3,29.94,SSW,202,0.3,1.1,96,0.07,CLR,,0.66,WeatherDisplay:10.37,2013-09-12 08:29:00,
2013-09-12 04:30:00,69.5,68.3,29.94,SSW,203,1.5,3.5,96,0.07,CLR,,0.66,WeatherDisplay:10.37,2013-09-12 08:30:00,
2013-09-12 04:32:00,69.5,68.3,29.94,SSW,203,0.9,2.3,96,0.06,CLR,,0.66,WeatherDisplay:10.37,2013-09-12 08:32:00,
2013-09-12 04:33:00,69.5,68.3,29.94,SW,218,1.9,2.3,96,0.06,CLR,,0.66,WeatherDisplay:10.37,2013-09-12 08:33:00,
2013-09-12 04:34:00,69.5,68.3,29.94,SW,235,2.1,3.5,96,0.05,CLR,,0.66,WeatherDisplay:10.37,2013-09-12 08:34:00,
2013-09-12 04:35:00,69.5,68.3,29.94,SW,235,2.4,3.5,96,0.04,CLR,,0.66,WeatherDisplay:10.37,2013-09-12 08:35:00,
2013-09-12 04:36:00,69.5,68.3,29.94,SW,235,2.1,3.5,96,0.04,CLR,,0.66,WeatherDisplay:10.37,2013-09-12 08:36:00,
2013-09-12 04:37:00,69.5,68.6,29.94,SW,235,2.2,3.5,97,0.04,CLR,,0.66,WeatherDisplay:10.37,2013-09-12 08:37:00,
2013-09-12 04:38:00,69.5,68.6,29.94,SW,235,2.0,3.5,97,0.04,CLR,,0.66,WeatherDisplay:10.37,2013-09-12 08:38:00,
2013-09-12 04:40:00,69.5,68.6,29.94,SW,219,2.5,3.5,97,0.03,CLR,,0.66,WeatherDisplay:10.37,2013-09-12 08:40:00,
2013-09-12 04:42:00,69.4,68.5,29.94,SW,219,1.4,3.5,97,0.03,CLR,,0.66,WeatherDisplay:10.37,2013-09-12 08:42:00,
2013-09-12 04:43:00,69.4,68.5,29.94,SW,219,2.1,3.5,97,0.03,CLR,,0.66,WeatherDisplay:10.37,2013-09-12 08:43:00,
2013-09-12 04:45:00,69.4,68.5,29.94,SW,219,2.8,3.5,97,0.03,CLR,,0.66,WeatherDisplay:10.37,2013-09-12 08:45:00,
2013-09-12 04:46:00,69.4,68.5,29.94,SW,219,1.4,4.0,97,0.03,CLR,,0.66,WeatherDisplay:10.37,2013-09-12 08:46:00,
2013-09-12 04:47:00,69.4,68.5,29.94,SW,226,2.4,3.5,97,0.03,CLR,,0.66,WeatherDisplay:10.37,2013-09-12 08:47:00,
2013-09-12 04:48:00,69.4,68.5,29.94,SW,226,2.1,3.5,97,0.03,CLR,,0.66,WeatherDisplay:10.37,2013-09-12 08:48:00,
2013-09-12 04:49:00,69.4,68.5,29.94,SW,219,2.1,3.5,97,0.02,CLR,,0.66,WeatherDisplay:10.37,2013-09-12 08:49:00,
2013-09-12 04:50:00,69.3,68.4,29.94,SW,233,3.1,4.6,97,0.02,CLR,,0.66,WeatherDisplay:10.37,2013-09-12 08:50:00,
2013-09-12 04:51:00,69.3,68.4,29.94,SW,225,2.4,3.5,97,0.02,CLR,,0.66,WeatherDisplay:10.37,2013-09-12 08:51:00,
2013-09-12 04:52:00,69.3,68.4,29.94,SW,228,1.8,3.5,97,0.02,CLR,,0.66,WeatherDisplay:10.37,2013-09-12 08:52:00,
2013-09-12 04:53:00,69.3,68.4,29.93,SW,228,3.0,4.6,97,0.02,CLR,,0.66,WeatherDisplay:10.37,2013-09-12 08:53:00,
2013-09-12 04:54:00,69.2,68.3,29.93,SW,228,2.4,3.5,97,0.02,CLR,,0.66,WeatherDisplay:10.37,2013-09-12 08:54:00,
2013-09-12 04:55:00,69.2,68.3,29.94,WSW,239,1.3,3.5,97,0.02,CLR,,0.66,WeatherDisplay:10.37,2013-09-12 08:55:00,
2013-09-12 04:56:00,69.2,68.3,29.94,WSW,239,1.0,2.3,97,0.02,CLR,,0.66,WeatherDisplay:10.37,2013-09-12 08:56:00,
2013-09-12 04:58:00,69.1,68.2,29.94,WSW,242,1.5,3.5,97,0.02,CLR,,0.66,WeatherDisplay:10.37,2013-09-12 08:58:00,
2013-09-12 04:59:00,69.1,68.2,29.93,WSW,242,1.3,3.5,97,0.02,CLR,,0.66,WeatherDisplay:10.37,2013-09-12 08:59:00,
2013-09-12 05:01:00,69.1,68.2,29.93,WSW,238,2.3,3.5,97,0.02,CLR,,0.66,WeatherDisplay:10.37,2013-09-12 09:01:00,
2013-09-12 05:03:00,69.1,68.2,29.94,SW,235,3.1,5.8,97,0.02,CLR,,0.66,WeatherDisplay:10.37,2013-09-12 09:03:00,
2013-09-12 05:04:00,69.1,68.2,29.94,SW,234,2.8,3.5,97,0.02,CLR,,0.66,WeatherDisplay:10.37,2013-09-12 09:04:00,
2013-09-12 05:05:00,69.1,68.2,29.94,SW,234,3.3,4.0,97,0.02,CLR,,0.66,WeatherDisplay:10.37,2013-09-12 09:05:00,
2013-09-12 05:06:00,69.0,68.1,29.94,West,263,2.6,5.0,97,0.01,CLR,,0.66,WeatherDisplay:10.37,2013-09-12 09:06:00,
2013-09-12 05:08:00,69.1,68.2,29.94,SW,236,2.9,3.5,97,0.01,CLR,,0.66,WeatherDisplay:10.37,2013-09-12 09:08:00,
2013-09-12 05:09:00,69.1,68.2,29.94,SW,225,2.1,3.5,97,0.01,CLR,,0.66,WeatherDisplay:10.37,2013-09-12 09:09:00,
2013-09-12 05:10:00,69.1,68.2,29.94,SW,225,2.5,3.5,97,0.01,CLR,,0.66,WeatherDisplay:10.37,2013-09-12 09:10:00,
2013-09-12 05:11:00,69.1,68.2,29.94,SW,221,2.6,3.5,97,0.01,CLR,,0.66,WeatherDisplay:10.37,2013-09-12 09:11:00,
2013-09-12 05:12:00,69.0,68.1,29.94,SW,223,2.0,4.6,97,0.01,CLR,,0.66,WeatherDisplay:10.37,2013-09-12 09:12:00,
2013-09-12 05:13:00,69.0,68.1,29.94,SW,223,3.0,3.5,97,0.01,CLR,,0.66,WeatherDisplay:10.37,2013-09-12 09:13:00,
2013-09-12 05:15:00,69.0,68.1,29.94,SW,222,1.9,3.5,97,0.01,CLR,,0.66,WeatherDisplay:10.37,2013-09-12 09:15:00,
2013-09-12 05:16:00,69.0,68.1,29.94,SW,223,2.0,3.5,97,0.00,CLR,,0.66,WeatherDisplay:10.37,2013-09-12 09:16:00,
2013-09-12 05:18:00,69.0,68.1,29.94,SW,223,1.9,3.5,97,0.00,CLR,,0.66,WeatherDisplay:10.37,2013-09-12 09:18:00,
2013-09-12 05:19:00,69.0,68.1,29.94,SW,225,2.1,3.5,97,0.00,CLR,,0.66,WeatherDisplay:10.37,2013-09-12 09:19:00,
2013-09-12 05:20:00,69.0,68.1,29.94,WSW,246,3.2,4.6,97,0.00,CLR,,0.66,WeatherDisplay:10.37,2013-09-12 09:20:00,
2013-09-12 05:21:00,69.0,68.1,29.94,WSW,246,1.8,4.6,97,0.00,CLR,,0.66,WeatherDisplay:10.37,2013-09-12 09:21:00,
2013-09-12 05:22:00,69.0,68.1,29.94,WSW,246,1.3,2.3,97,0.00,CLR,,0.66,WeatherDisplay:10.37,2013-09-12 09:22:00,
2013-09-12 05:23:00,69.0,68.1,29.94,SW,228,2.2,3.5,97,0.00,CLR,,0.66,WeatherDisplay:10.37,2013-09-12 09:23:00,
2013-09-12 05:25:00,69.0,68.1,29.94,SW,228,2.0,3.5,97,0.00,CLR,,0.66,WeatherDisplay:10.37,2013-09-12 09:25:00,
2013-09-12 05:26:00,69.0,68.1,29.94,WSW,242,2.4,5.0,97,0.00,CLR,,0.66,WeatherDisplay:10.37,2013-09-12 09:26:00,
2013-09-12 05:27:00,69.0,68.1,29.94,WSW,242,2.5,3.5,97,0.00,CLR,,0.66,WeatherDisplay:10.37,2013-09-12 09:27:00,
2013-09-12 05:28:00,69.0,68.1,29.94,SW,225,1.4,3.5,97,0.00,CLR,,0.66,WeatherDisplay:10.37,2013-09-12 09:28:00,
2013-09-12 05:30:00,68.9,68.0,29.94,SW,231,2.2,3.5,97,0.00,CLR,,0.66,WeatherDisplay:10.37,2013-09-12 09:30:00,
2013-09-12 05:31:00,68.9,68.0,29.94,WSW,239,2.5,5.0,97,0.00,CLR,,0.66,WeatherDisplay:10.37,2013-09-12 09:31:00,
2013-09-12 05:32:00,68.9,68.0,29.94,WSW,246,3.1,4.6,97,0.00,CLR,,0.66,WeatherDisplay:10.37,2013-09-12 09:32:00,
2013-09-12 05:33:00,68.9,68.0,29.95,WSW,241,2.5,3.5,97,0.00,CLR,,0.66,WeatherDisplay:10.37,2013-09-12 09:33:00,
2013-09-12 05:35:00,68.9,68.0,29.95,SW,235,4.2,4.6,97,0.00,CLR,,0.66,WeatherDisplay:10.37,2013-09-12 09:35:00,
2013-09-12 05:36:00,68.9,68.0,29.95,SW,235,3.4,4.6,97,0.00,CLR,,0.66,WeatherDisplay:10.37,2013-09-12 09:36:00,
2013-09-12 05:37:00,68.9,68.0,29.95,SW,236,2.0,3.5,97,0.00,CLR,,0.66,WeatherDisplay:10.37,2013-09-12 09:37:00,
2013-09-12 05:39:00,68.9,68.0,29.95,SW,236,2.5,3.5,97,0.00,CLR,,0.66,WeatherDisplay:10.37,2013-09-12 09:39:00,
2013-09-12 05:40:00,68.9,68.0,29.95,SW,236,1.7,3.5,97,0.00,CLR,,0.66,WeatherDisplay:10.37,2013-09-12 09:40:00,
2013-09-12 05:41:00,68.9,68.0,29.95,SW,236,2.1,3.5,97,0.00,CLR,,0.66,WeatherDisplay:10.37,2013-09-12 09:41:00,
2013-09-12 05:42:00,68.9,68.0,29.95,SW,236,1.5,3.5,97,0.00,CLR,,0.66,WeatherDisplay:10.37,2013-09-12 09:42:00,
2013-09-12 05:44:00,68.9,68.0,29.95,WSW,238,2.9,3.5,97,0.00,CLR,,0.66,WeatherDisplay:10.37,2013-09-12 09:44:00,
2013-09-12 05:46:00,68.9,68.0,29.95,WSW,238,2.0,3.5,97,0.00,CLR,,0.66,WeatherDisplay:10.37,2013-09-12 09:46:00,
2013-09-12 05:47:00,68.9,68.0,29.95,WSW,238,1.4,2.3,97,0.00,CLR,,0.66,WeatherDisplay:10.37,2013-09-12 09:47:00,
2013-09-12 05:48:00,68.9,68.0,29.95,WSW,238,1.4,2.3,97,0.00,CLR,,0.66,WeatherDisplay:10.37,2013-09-12 09:48:00,
2013-09-12 05:49:00,68.9,68.0,29.95,SW,222,1.7,3.5,97,0.00,CLR,,0.66,WeatherDisplay:10.37,2013-09-12 09:49:00,
2013-09-12 05:51:00,68.9,68.0,29.94,SW,223,0.9,2.0,97,0.00,CLR,,0.66,WeatherDisplay:10.37,2013-09-12 09:51:00,
2013-09-12 05:52:00,68.9,68.0,29.94,SW,223,1.8,3.5,97,0.00,CLR,,0.66,WeatherDisplay:10.37,2013-09-12 09:52:00,
2013-09-12 05:53:00,68.9,68.0,29.94,SW,223,1.0,3.5,97,0.00,CLR,,0.66,WeatherDisplay:10.37,2013-09-12 09:53:00,
2013-09-12 05:54:00,68.9,68.0,29.95,SW,223,1.8,2.3,97,0.00,CLR,,0.66,WeatherDisplay:10.37,2013-09-12 09:54:00,
2013-09-12 05:56:00,68.9,68.0,29.94,SW,233,1.7,3.5,97,0.00,CLR,,0.66,WeatherDisplay:10.37,2013-09-12 09:56:00,
2013-09-12 05:57:00,68.9,68.0,29.95,SW,236,3.4,5.0,97,0.00,CLR,,0.66,WeatherDisplay:10.37,2013-09-12 09:57:00,
2013-09-12 05:58:00,68.9,68.0,29.95,SW,236,3.7,4.6,97,0.00,CLR,,0.66,WeatherDisplay:10.37,2013-09-12 09:58:00,
2013-09-12 05:59:00,68.9,68.0,29.95,SW,236,2.7,3.5,97,0.00,CLR,,0.66,WeatherDisplay:10.37,2013-09-12 09:59:00,
2013-09-12 06:00:00,68.9,68.0,29.95,SW,236,1.7,3.5,97,0.00,CLR,,0.66,WeatherDisplay:10.37,2013-09-12 10:00:00,
2013-09-12 06:01:00,68.9,68.0,29.95,SW,236,1.8,3.5,97,0.00,CLR,,0.66,WeatherDisplay:10.37,2013-09-12 10:01:00,
2013-09-12 06:02:00,68.9,68.0,29.95,WSW,254,2.8,4.0,97,0.00,CLR,,0.66,WeatherDisplay:10.37,2013-09-12 10:02:00,
2013-09-12 06:03:00,68.9,68.0,29.95,WSW,254,2.7,3.5,97,0.00,CLR,,0.66,WeatherDisplay:10.37,2013-09-12 10:03:00,
2013-09-12 06:04:00,68.8,67.9,29.95,WSW,254,2.1,4.0,97,0.00,CLR,,0.66,WeatherDisplay:10.37,2013-09-12 10:04:00,
2013-09-12 06:05:00,68.8,67.9,29.95,WSW,248,3.2,4.6,97,0.00,CLR,,0.66,WeatherDisplay:10.37,2013-09-12 10:05:00,
2013-09-12 06:06:00,68.8,67.9,29.95,WSW,252,2.2,3.5,97,0.00,CLR,,0.66,WeatherDisplay:10.37,2013-09-12 10:06:00,
2013-09-12 06:08:00,68.8,67.9,29.95,WSW,252,2.1,3.5,97,0.00,CLR,,0.66,WeatherDisplay:10.37,2013-09-12 10:08:00,
2013-09-12 06:09:00,68.8,67.9,29.95,WSW,248,2.7,3.5,97,0.00,CLR,,0.66,WeatherDisplay:10.37,2013-09-12 10:09:00,
2013-09-12 06:11:00,68.8,67.9,29.95,WSW,242,1.9,3.5,97,0.00,CLR,,0.66,WeatherDisplay:10.37,2013-09-12 10:11:00,
2013-09-12 06:12:00,68.8,67.9,29.95,WSW,242,1.9,3.5,97,0.00,CLR,,0.66,WeatherDisplay:10.37,2013-09-12 10:12:00,
2013-09-12 06:13:00,68.8,67.9,29.95,WSW,242,1.0,3.5,97,0.00,CLR,,0.66,WeatherDisplay:10.37,2013-09-12 10:13:00,
2013-09-12 06:14:00,68.8,67.9,29.95,WSW,242,1.1,2.3,97,0.00,CLR,,0.66,WeatherDisplay:10.37,2013-09-12 10:14:00,
2013-09-12 06:15:00,68.8,67.9,29.95,WSW,242,1.2,2.3,97,0.00,CLR,,0.66,WeatherDisplay:10.37,2013-09-12 10:15:00,
2013-09-12 06:16:00,68.7,67.8,29.95,WSW,242,0.9,2.3,97,0.00,CLR,,0.66,WeatherDisplay:10.37,2013-09-12 10:16:00,
2013-09-12 06:18:00,68.7,67.8,29.95,WSW,242,1.9,3.5,97,0.00,CLR,,0.66,WeatherDisplay:10.37,2013-09-12 10:18:00,
2013-09-12 06:19:00,68.7,67.8,29.95,WSW,242,1.5,3.5,97,0.00,CLR,,0.66,WeatherDisplay:10.37,2013-09-12 10:19:00,
2013-09-12 06:20:00,68.7,67.8,29.95,WSW,242,1.0,3.0,97,0.00,CLR,,0.66,WeatherDisplay:10.37,2013-09-12 10:20:00,
2013-09-12 06:22:00,68.7,67.8,29.95,WSW,242,1.2,3.0,97,0.00,CLR,,0.66,WeatherDisplay:10.37,2013-09-12 10:22:00,
2013-09-12 06:23:00,68.7,67.8,29.95,WSW,242,0.6,3.5,97,0.00,CLR,,0.66,WeatherDisplay:10.37,2013-09-12 10:23:00,
2013-09-12 06:24:00,68.7,67.8,29.95,WSW,242,1.1,2.3,97,0.00,CLR,,0.66,WeatherDisplay:10.37,2013-09-12 10:24:00,
2013-09-12 06:25:00,68.7,67.8,29.95,WSW,242,2.0,2.3,97,0.00,CLR,,0.66,WeatherDisplay:10.37,2013-09-12 10:25:00,
2013-09-12 06:26:00,68.6,67.7,29.95,WSW,242,1.0,2.3,97,0.00,CLR,,0.66,WeatherDisplay:10.37,2013-09-12 10:26:00,
2013-09-12 06:27:00,68.6,67.7,29.95,WSW,242,1.6,2.3,97,0.00,CLR,,0.66,WeatherDisplay:10.37,2013-09-12 10:27:00,
2013-09-12 06:29:00,68.6,67.7,29.95,WSW,242,1.9,3.5,97,0.00,CLR,,0.66,WeatherDisplay:10.37,2013-09-12 10:29:00,
2013-09-12 06:30:00,68.6,67.7,29.95,SW,235,2.9,3.5,97,0.00,CLR,,0.66,WeatherDisplay:10.37,2013-09-12 10:30:00,
2013-09-12 06:31:00,68.6,67.7,29.95,WSW,240,2.8,3.5,97,0.00,CLR,,0.66,WeatherDisplay:10.37,2013-09-12 10:31:00,
2013-09-12 06:32:00,68.6,67.7,29.95,WSW,240,1.8,3.5,97,0.00,CLR,,0.66,WeatherDisplay:10.37,2013-09-12 10:32:00,
2013-09-12 06:34:00,68.6,67.7,29.95,WSW,251,2.3,3.5,97,0.00,CLR,,0.66,WeatherDisplay:10.37,2013-09-12 10:34:00,
2013-09-12 06:35:00,68.6,67.7,29.95,WSW,251,2.2,3.5,97,0.00,CLR,,0.66,WeatherDisplay:10.37,2013-09-12 10:35:00,
2013-09-12 06:36:00,68.6,67.7,29.95,WSW,251,1.3,3.5,97,0.00,CLR,,0.66,WeatherDisplay:10.37,2013-09-12 10:36:00,
2013-09-12 06:37:00,68.5,67.6,29.95,WSW,251,1.3,3.5,97,0.00,CLR,,0.66,WeatherDisplay:10.37,2013-09-12 10:37:00,
2013-09-12 06:39:00,68.5,67.6,29.95,SW,233,2.5,4.6,97,0.00,CLR,,0.66,WeatherDisplay:10.37,2013-09-12 10:39:00,
2013-09-12 06:40:00,68.5,67.6,29.95,WSW,244,2.7,3.5,97,0.00,CLR,,0.66,WeatherDisplay:10.37,2013-09-12 10:40:00,
2013-09-12 06:42:00,68.5,67.6,29.96,WSW,244,1.4,3.5,97,0.00,CLR,,0.66,WeatherDisplay:10.37,2013-09-12 10:42:00,
2013-09-12 06:45:00,68.4,67.5,29.96,WSW,245,1.1,2.3,97,0.00,CLR,,0.66,WeatherDisplay:10.37,2013-09-12 10:45:00,
2013-09-12 06:47:00,68.4,67.5,29.96,West,271,0.8,2.3,97,0.00,CLR,,0.66,WeatherDisplay:10.37,2013-09-12 10:47:00,
2013-09-12 06:50:00,68.4,67.5,29.95,West,265,1.2,2.3,97,0.00,CLR,,0.66,WeatherDisplay:10.37,2013-09-12 10:50:00,
2013-09-12 06:51:00,68.3,67.4,29.96,West,265,1.7,3.5,97,0.00,CLR,,0.66,WeatherDisplay:10.37,2013-09-12 10:51:00,
2013-09-12 06:52:00,68.3,67.4,29.96,West,265,0.8,2.3,97,0.00,CLR,,0.66,WeatherDisplay:10.37,2013-09-12 10:52:00,
2013-09-12 06:53:00,68.3,67.4,29.96,West,265,0.6,2.3,97,0.00,CLR,,0.66,WeatherDisplay:10.37,2013-09-12 10:53:00,
2013-09-12 06:55:00,68.3,67.4,29.96,West,265,1.9,3.5,97,0.00,CLR,,0.66,WeatherDisplay:10.37,2013-09-12 10:55:00,
2013-09-12 06:57:00,68.3,67.4,29.96,West,264,2.0,3.5,97,0.00,CLR,,0.66,WeatherDisplay:10.37,2013-09-12 10:57:00,
2013-09-12 06:58:00,68.3,67.4,29.96,West,264,1.0,2.3,97,0.00,CLR,,0.66,WeatherDisplay:10.37,2013-09-12 10:58:00,
2013-09-12 07:00:00,68.3,67.4,29.96,West,264,0.5,3.5,97,0.00,CLR,,0.66,WeatherDisplay:10.37,2013-09-12 11:00:00,
2013-09-12 07:02:00,68.2,67.3,29.96,WSW,237,2.3,3.5,97,0.00,CLR,,0.66,WeatherDisplay:10.37,2013-09-12 11:02:00,
2013-09-12 07:03:00,68.2,67.3,29.96,WSW,237,1.0,3.5,97,0.00,CLR,,0.66,WeatherDisplay:10.37,2013-09-12 11:03:00,
2013-09-12 07:04:00,68.2,67.3,29.96,WSW,237,0.8,3.5,97,0.00,CLR,,0.66,WeatherDisplay:10.37,2013-09-12 11:04:00,
2013-09-12 07:05:00,68.3,67.4,29.96,WSW,237,0.6,2.3,97,0.00,CLR,,0.66,WeatherDisplay:10.37,2013-09-12 11:05:00,
2013-09-12 07:07:00,68.2,67.3,29.96,WSW,237,2.0,3.5,97,0.00,CLR,,0.66,WeatherDisplay:10.37,2013-09-12 11:07:00,
2013-09-12 07:08:00,68.2,67.3,29.96,WSW,237,1.2,3.5,97,0.00,CLR,,0.66,WeatherDisplay:10.37,2013-09-12 11:08:00,
2013-09-12 07:09:00,68.2,67.3,29.96,WSW,237,0.8,3.5,97,0.00,CLR,,0.66,WeatherDisplay:10.37,2013-09-12 11:09:00,
2013-09-12 07:10:00,68.2,67.3,29.96,WSW,237,1.6,2.3,97,0.00,CLR,,0.66,WeatherDisplay:10.37,2013-09-12 11:10:00,
2013-09-12 07:11:00,68.2,67.3,29.96,WSW,237,1.8,3.5,97,0.00,CLR,,0.66,WeatherDisplay:10.37,2013-09-12 11:11:00,
2013-09-12 07:13:00,68.2,67.3,29.96,WSW,237,2.1,3.5,97,0.00,CLR,,0.66,WeatherDisplay:10.37,2013-09-12 11:13:00,
2013-09-12 07:14:00,68.2,67.3,29.96,SW,234,2.8,4.6,97,0.00,CLR,,0.66,WeatherDisplay:10.37,2013-09-12 11:14:00,
2013-09-12 07:15:00,68.2,67.3,29.96,SW,234,1.3,3.5,97,0.00,CLR,,0.66,WeatherDisplay:10.37,2013-09-12 11:15:00,
2013-09-12 07:16:00,68.2,67.3,29.96,SW,234,0.8,3.5,97,0.00,CLR,,0.66,WeatherDisplay:10.37,2013-09-12 11:16:00,
2013-09-12 07:18:00,68.2,67.3,29.96,SW,234,0.7,2.3,97,0.00,CLR,,0.66,WeatherDisplay:10.37,2013-09-12 11:18:00,
2013-09-12 07:19:00,68.2,67.3,29.96,SW,234,0.7,2.3,97,0.00,CLR,,0.66,WeatherDisplay:10.37,2013-09-12 11:19:00,
2013-09-12 07:20:00,68.2,67.3,29.96,SW,234,1.7,3.5,97,0.00,CLR,,0.66,WeatherDisplay:10.37,2013-09-12 11:20:00,
2013-09-12 07:21:00,68.2,67.3,29.96,SW,234,1.6,3.5,97,0.00,CLR,,0.66,WeatherDisplay:10.37,2013-09-12 11:21:00,
2013-09-12 07:24:00,68.3,67.4,29.96,SW,234,1.1,2.3,97,0.00,CLR,,0.66,WeatherDisplay:10.37,2013-09-12 11:24:00,
2013-09-12 07:26:00,68.3,67.4,29.96,SW,234,1.6,3.5,97,0.00,CLR,,0.66,WeatherDisplay:10.37,2013-09-12 11:26:00,
2013-09-12 07:27:00,68.3,67.4,29.96,SW,234,0.3,3.5,97,0.00,CLR,,0.66,WeatherDisplay:10.37,2013-09-12 11:27:00,
2013-09-12 07:29:00,68.2,67.3,29.96,SW,234,0.0,1.1,97,0.00,CLR,,0.66,WeatherDisplay:10.37,2013-09-12 11:29:00,
2013-09-12 07:30:00,68.2,67.3,29.96,SW,234,0.5,1.1,97,0.00,CLR,,0.66,WeatherDisplay:10.37,2013-09-12 11:30:00,
2013-09-12 07:31:00,68.2,67.3,29.96,SW,234,0.3,2.3,97,0.00,CLR,,0.66,WeatherDisplay:10.37,2013-09-12 11:31:00,
2013-09-12 07:32:00,68.2,67.3,29.96,SW,234,0.2,1.1,97,0.00,CLR,,0.66,WeatherDisplay:10.37,2013-09-12 11:32:00,
2013-09-12 07:33:00,68.2,67.3,29.95,SW,234,0.8,2.3,97,0.00,CLR,,0.66,WeatherDisplay:10.37,2013-09-12 11:33:00,
2013-09-12 07:34:00,68.2,67.3,29.96,SW,234,0.0,0.0,97,0.00,CLR,,0.66,WeatherDisplay:10.37,2013-09-12 11:34:00,
2013-09-12 07:36:00,68.2,67.3,29.96,SW,234,0.0,0.0,97,0.00,CLR,,0.66,WeatherDisplay:10.37,2013-09-12 11:36:00,
2013-09-12 07:37:00,68.2,67.3,29.95,SW,234,0.0,1.1,97,0.00,CLR,,0.66,WeatherDisplay:10.37,2013-09-12 11:37:00,
2013-09-12 07:39:00,68.2,67.3,29.95,SW,234,0.8,3.0,97,0.00,CLR,,0.66,WeatherDisplay:10.37,2013-09-12 11:39:00,
2013-09-12 07:41:00,68.3,67.4,29.95,SW,234,1.7,3.5,97,0.00,CLR,,0.66,WeatherDisplay:10.37,2013-09-12 11:41:00,
2013-09-12 07:43:00,68.3,67.4,29.95,SW,234,1.0,3.5,97,0.00,CLR,,0.66,WeatherDisplay:10.37,2013-09-12 11:43:00,
2013-09-12 07:44:00,68.3,67.4,29.95,SW,234,0.4,1.1,97,0.00,CLR,,0.66,WeatherDisplay:10.37,2013-09-12 11:44:00,
2013-09-12 07:45:00,68.3,67.4,29.95,SW,234,0.1,1.1,97,0.00,CLR,,0.66,WeatherDisplay:10.37,2013-09-12 11:45:00,
2013-09-12 07:46:00,68.3,67.4,29.95,SW,234,0.0,0.0,97,0.00,CLR,,0.66,WeatherDisplay:10.37,2013-09-12 11:46:00,
2013-09-12 07:47:00,68.3,67.4,29.95,SW,234,0.0,0.0,97,0.00,CLR,,0.66,WeatherDisplay:10.37,2013-09-12 11:47:00,
2013-09-12 07:49:00,68.3,67.4,29.96,SW,234,0.1,1.1,97,0.00,CLR,,0.66,WeatherDisplay:10.37,2013-09-12 11:49:00,
2013-09-12 07:50:00,68.3,67.4,29.96,SW,234,0.0,1.1,97,0.00,CLR,,0.66,WeatherDisplay:10.37,2013-09-12 11:50:00,
2013-09-12 07:51:00,68.3,67.4,29.96,SW,234,0.0,0.0,97,0.00,CLR,,0.66,WeatherDisplay:10.37,2013-09-12 11:51:00,
2013-09-12 07:52:00,68.3,67.4,29.96,SW,234,0.0,0.0,97,0.00,CLR,,0.66,WeatherDisplay:10.37,2013-09-12 11:52:00,
2013-09-12 07:53:00,68.3,67.4,29.96,SW,234,0.9,2.3,97,0.00,CLR,,0.66,WeatherDisplay:10.37,2013-09-12 11:53:00,
2013-09-12 07:55:00,68.3,67.4,29.96,SW,234,1.0,2.0,97,0.00,CLR,,0.66,WeatherDisplay:10.37,2013-09-12 11:55:00,
2013-09-12 07:56:00,68.3,67.4,29.96,SW,234,0.0,0.0,97,0.00,CLR,,0.66,WeatherDisplay:10.37,2013-09-12 11:56:00,
2013-09-12 07:57:00,68.4,67.5,29.96,SW,234,0.0,0.0,97,0.00,CLR,,0.66,WeatherDisplay:10.37,2013-09-12 11:57:00,
2013-09-12 07:59:00,68.4,67.5,29.96,SW,234,0.1,0.0,97,0.00,CLR,,0.66,WeatherDisplay:10.37,2013-09-12 11:59:00,
2013-09-12 08:00:00,68.4,67.5,29.96,SW,234,0.3,1.1,97,0.00,CLR,,0.66,WeatherDisplay:10.37,2013-09-12 12:00:00,
2013-09-12 08:01:00,68.4,67.8,29.96,SW,234,1.1,2.3,98,0.00,CLR,,0.66,WeatherDisplay:10.37,2013-09-12 12:01:00,
2013-09-12 08:02:00,68.4,67.8,29.96,SW,234,0.3,2.3,98,0.00,CLR,,0.66,WeatherDisplay:10.37,2013-09-12 12:02:00,
2013-09-12 08:04:00,68.5,67.9,29.96,SW,234,0.8,2.3,98,0.00,CLR,,0.66,WeatherDisplay:10.37,2013-09-12 12:04:00,
2013-09-12 08:05:00,68.5,67.9,29.96,SW,234,0.2,1.1,98,0.00,CLR,,0.66,WeatherDisplay:10.37,2013-09-12 12:05:00,
2013-09-12 08:06:00,68.5,67.9,29.96,SW,234,0.0,1.1,98,0.00,CLR,,0.66,WeatherDisplay:10.37,2013-09-12 12:06:00,
2013-09-12 08:07:00,68.5,67.9,29.96,SW,234,0.0,0.0,98,0.00,CLR,,0.66,WeatherDisplay:10.37,2013-09-12 12:07:00,
2013-09-12 08:08:00,68.5,67.9,29.96,SW,234,0.1,1.1,98,0.00,CLR,,0.66,WeatherDisplay:10.37,2013-09-12 12:08:00,
2013-09-12 08:09:00,68.5,67.9,29.96,SW,234,0.7,2.3,98,0.00,CLR,,0.66,WeatherDisplay:10.37,2013-09-12 12:09:00,
2013-09-12 08:10:00,68.5,67.9,29.95,SW,234,0.2,2.3,98,0.00,CLR,,0.66,WeatherDisplay:10.37,2013-09-12 12:10:00,
2013-09-12 08:11:00,68.5,67.9,29.96,SW,225,0.5,1.1,98,0.00,CLR,,0.66,WeatherDisplay:10.37,2013-09-12 12:11:00,
2013-09-12 08:12:00,68.6,68.0,29.96,SW,225,0.0,1.1,98,0.00,CLR,,0.66,WeatherDisplay:10.37,2013-09-12 12:12:00,
2013-09-12 08:14:00,68.6,68.0,29.96,SW,225,0.0,1.1,98,0.00,CLR,,0.66,WeatherDisplay:10.37,2013-09-12 12:14:00,
2013-09-12 08:15:00,68.6,68.0,29.96,SW,225,0.2,2.3,98,0.00,CLR,,0.66,WeatherDisplay:10.37,2013-09-12 12:15:00,
2013-09-12 08:16:00,68.6,68.0,29.96,SW,225,0.8,1.1,98,0.00,CLR,,0.66,WeatherDisplay:10.37,2013-09-12 12:16:00,
2013-09-12 08:17:00,68.7,68.1,29.96,SW,225,0.8,2.3,98,0.00,CLR,,0.66,WeatherDisplay:10.37,2013-09-12 12:17:00,
2013-09-12 08:20:00,68.8,68.2,29.96,SW,225,0.0,0.0,98,0.00,CLR,,0.66,WeatherDisplay:10.37,2013-09-12 12:20:00,
2013-09-12 08:21:00,68.8,68.2,29.96,SW,225,0.0,0.0,98,0.00,CLR,,0.66,WeatherDisplay:10.37,2013-09-12 12:21:00,
2013-09-12 08:22:00,68.8,68.2,29.96,SW,225,0.0,0.0,98,0.00,CLR,,0.66,WeatherDisplay:10.37,2013-09-12 12:22:00,
2013-09-12 08:25:00,68.9,68.3,29.96,SW,225,0.0,2.3,98,0.00,CLR,,0.66,WeatherDisplay:10.37,2013-09-12 12:25:00,
2013-09-12 08:26:00,68.9,68.3,29.96,SW,225,0.2,2.3,98,0.00,CLR,,0.66,WeatherDisplay:10.37,2013-09-12 12:26:00,
2013-09-12 08:27:00,68.9,68.3,29.96,SW,225,0.4,1.1,98,0.00,CLR,,0.66,WeatherDisplay:10.37,2013-09-12 12:27:00,
2013-09-12 08:28:00,68.9,68.3,29.96,SW,225,0.1,1.1,98,0.00,CLR,,0.66,WeatherDisplay:10.37,2013-09-12 12:28:00,
2013-09-12 08:30:00,68.9,68.3,29.96,SW,225,0.0,0.0,98,0.00,CLR,,0.66,WeatherDisplay:10.37,2013-09-12 12:30:00,
2013-09-12 08:31:00,69.0,68.4,29.95,SW,225,0.0,0.0,98,0.00,CLR,,0.66,WeatherDisplay:10.37,2013-09-12 12:31:00,
2013-09-12 08:32:00,69.0,68.4,29.95,SW,225,0.0,0.0,98,0.00,CLR,,0.66,WeatherDisplay:10.37,2013-09-12 12:32:00,
2013-09-12 08:33:00,69.0,68.4,29.95,SW,225,0.3,0.0,98,0.00,CLR,,0.66,WeatherDisplay:10.37,2013-09-12 12:33:00,
2013-09-12 08:36:00,69.0,68.4,29.95,SW,225,0.2,1.1,98,0.00,CLR,,0.66,WeatherDisplay:10.37,2013-09-12 12:36:00,
2013-09-12 08:37:00,69.0,68.4,29.95,SW,225,0.1,1.1,98,0.00,CLR,,0.66,WeatherDisplay:10.37,2013-09-12 12:37:00,
2013-09-12 08:38:00,69.0,68.4,29.95,SW,225,0.1,1.1,98,0.00,CLR,,0.66,WeatherDisplay:10.37,2013-09-12 12:38:00,
2013-09-12 08:39:00,69.1,68.5,29.95,NW,309,0.6,3.5,98,0.00,CLR,,0.66,WeatherDisplay:10.37,2013-09-12 12:39:00,
2013-09-12 08:41:00,69.1,68.5,29.95,NW,310,0.1,1.1,98,0.00,CLR,,0.66,WeatherDisplay:10.37,2013-09-12 12:41:00,
2013-09-12 08:42:00,69.1,68.5,29.95,NW,310,0.2,1.1,98,0.00,CLR,,0.66,WeatherDisplay:10.37,2013-09-12 12:42:00,
2013-09-12 08:43:00,69.1,68.5,29.95,NW,310,0.3,1.1,98,0.00,CLR,,0.66,WeatherDisplay:10.37,2013-09-12 12:43:00,
2013-09-12 08:44:00,69.1,68.2,29.95,NW,319,1.5,4.0,97,0.00,CLR,,0.66,WeatherDisplay:10.37,2013-09-12 12:44:00,
2013-09-12 08:46:00,69.0,68.1,29.95,WSW,248,0.3,2.3,97,0.00,CLR,,0.66,WeatherDisplay:10.37,2013-09-12 12:46:00,
2013-09-12 08:47:00,69.0,68.1,29.95,West,268,1.4,4.6,97,0.00,CLR,,0.66,WeatherDisplay:10.37,2013-09-12 12:47:00,
2013-09-12 08:48:00,69.0,68.1,29.95,West,275,0.3,4.6,97,0.00,CLR,,0.66,WeatherDisplay:10.37,2013-09-12 12:48:00,
2013-09-12 08:49:00,69.0,68.1,29.95,West,277,0.5,1.1,97,0.00,CLR,,0.66,WeatherDisplay:10.37,2013-09-12 12:49:00,
2013-09-12 08:51:00,69.0,68.1,29.95,West,277,0.0,2.3,97,0.00,CLR,,0.66,WeatherDisplay:10.37,2013-09-12 12:51:00,
2013-09-12 08:52:00,69.0,68.1,29.95,West,277,0.2,1.1,97,0.00,CLR,,0.66,WeatherDisplay:10.37,2013-09-12 12:52:00,
2013-09-12 08:53:00,69.1,68.2,29.95,West,277,0.1,2.0,97,0.00,CLR,,0.66,WeatherDisplay:10.37,2013-09-12 12:53:00,
2013-09-12 08:54:00,69.1,68.5,29.95,West,277,0.1,2.3,98,0.00,CLR,,0.66,WeatherDisplay:10.37,2013-09-12 12:54:00,
2013-09-12 08:56:00,69.1,68.5,29.95,West,277,0.5,2.3,98,0.00,CLR,,0.66,WeatherDisplay:10.37,2013-09-12 12:56:00,
2013-09-12 08:57:00,69.1,68.5,29.95,West,277,0.2,2.3,98,0.00,CLR,,0.66,WeatherDisplay:10.37,2013-09-12 12:57:00,
2013-09-12 08:58:00,69.1,68.5,29.95,West,277,0.1,1.1,98,0.00,CLR,,0.66,WeatherDisplay:10.37,2013-09-12 12:58:00,
2013-09-12 08:59:00,69.2,68.6,29.95,West,277,0.2,0.0,98,0.00,CLR,,0.66,WeatherDisplay:10.37,2013-09-12 12:59:00,
2013-09-12 09:01:00,69.2,68.6,29.95,West,277,0.0,0.0,98,0.00,CLR,,0.66,WeatherDisplay:10.37,2013-09-12 13:01:00,
2013-09-12 09:03:00,69.2,68.6,29.95,NW,305,0.2,1.1,98,0.00,CLR,,0.66,WeatherDisplay:10.37,2013-09-12 13:03:00,
2013-09-12 09:04:00,69.2,68.6,29.95,NW,311,0.7,2.3,98,0.00,CLR,,0.66,WeatherDisplay:10.37,2013-09-12 13:04:00,
2013-09-12 09:06:00,69.2,68.6,29.95,NW,311,0.0,2.3,98,0.00,CLR,,0.66,WeatherDisplay:10.37,2013-09-12 13:06:00,
2013-09-12 09:08:00,69.2,68.6,29.96,NW,311,0.0,1.1,98,0.00,CLR,,0.66,WeatherDisplay:10.37,2013-09-12 13:08:00,
2013-09-12 09:09:00,69.3,68.7,29.96,NW,311,0.0,1.1,98,0.00,CLR,,0.66,WeatherDisplay:10.37,2013-09-12 13:09:00,
2013-09-12 09:11:00,69.3,68.7,29.95,NW,311,0.0,1.1,98,0.00,CLR,,0.66,WeatherDisplay:10.37,2013-09-12 13:11:00,
2013-09-12 09:12:00,69.3,68.7,29.96,NW,311,0.0,0.0,98,0.00,CLR,,0.66,WeatherDisplay:10.37,2013-09-12 13:12:00,
2013-09-12 09:13:00,69.3,68.7,29.96,NW,311,0.2,1.1,98,0.00,CLR,,0.66,WeatherDisplay:10.37,2013-09-12 13:13:00,
2013-09-12 09:14:00,69.4,68.8,29.96,NW,311,0.0,2.3,98,0.00,CLR,,0.66,WeatherDisplay:10.37,2013-09-12 13:14:00,
2013-09-12 09:17:00,69.4,68.8,29.96,NW,315,0.2,2.3,98,0.00,CLR,,0.66,WeatherDisplay:10.37,2013-09-12 13:17:00,
2013-09-12 09:18:00,69.4,68.8,29.96,NW,315,0.0,0.0,98,0.00,CLR,,0.66,WeatherDisplay:10.37,2013-09-12 13:18:00,
2013-09-12 09:20:00,69.4,68.8,29.96,West,263,0.4,2.0,98,0.00,CLR,,0.66,WeatherDisplay:10.37,2013-09-12 13:20:00,
2013-09-12 09:23:00,69.4,68.5,29.96,NW,324,0.9,2.3,97,0.00,CLR,,0.66,WeatherDisplay:10.37,2013-09-12 13:23:00,
2013-09-12 09:25:00,69.4,68.5,29.96,NW,325,0.8,2.3,97,0.00,CLR,,0.66,WeatherDisplay:10.37,2013-09-12 13:25:00,
2013-09-12 09:28:00,69.4,68.5,29.96,WNW,298,2.6,2.6,97,0.00,CLR,,0.66,WeatherDisplay:10.37,2013-09-12 13:28:00,
2013-09-12 09:29:00,69.4,68.5,29.96,WNW,298,2.6,2.6,97,0.00,CLR,,0.66,WeatherDisplay:10.37,2013-09-12 13:29:00,
2013-09-12 09:30:00,69.4,68.5,29.96,WNW,298,0.3,2.3,97,0.00,CLR,,0.66,WeatherDisplay:10.37,2013-09-12 13:30:00,
2013-09-12 09:34:00,69.5,68.6,29.96,NNW,346,1.3,3.5,97,0.00,CLR,,0.66,WeatherDisplay:10.37,2013-09-12 13:34:00,
2013-09-12 09:35:00,69.5,68.6,29.96,NNW,331,0.8,2.3,97,0.00,CLR,,0.66,WeatherDisplay:10.37,2013-09-12 13:35:00,
2013-09-12 09:39:00,69.5,68.6,29.96,North,5,0.5,3.0,97,0.00,CLR,,0.66,WeatherDisplay:10.37,2013-09-12 13:39:00,
2013-09-12 09:40:00,69.5,68.6,29.96,NNW,346,2.4,4.0,97,0.00,CLR,,0.66,WeatherDisplay:10.37,2013-09-12 13:40:00,
2013-09-12 09:42:00,69.5,68.6,29.96,NW,320,0.8,3.5,97,0.00,CLR,,0.66,WeatherDisplay:10.37,2013-09-12 13:42:00,
2013-09-12 09:44:00,69.5,68.6,29.96,NW,319,0.6,3.5,97,0.00,CLR,,0.66,WeatherDisplay:10.37,2013-09-12 13:44:00,
2013-09-12 09:45:00,69.5,68.6,29.96,NW,319,0.1,2.3,97,0.00,CLR,,0.66,WeatherDisplay:10.37,2013-09-12 13:45:00,
2013-09-12 09:46:00,69.5,68.6,29.96,NW,324,0.4,2.0,97,0.00,CLR,,0.66,WeatherDisplay:10.37,2013-09-12 13:46:00,
2013-09-12 09:47:00,69.5,68.6,29.96,NNW,346,1.9,3.5,97,0.00,CLR,,0.66,WeatherDisplay:10.37,2013-09-12 13:47:00,
2013-09-12 09:49:00,69.3,68.4,29.96,NNW,343,1.1,4.6,97,0.00,CLR,,0.66,WeatherDisplay:10.37,2013-09-12 13:49:00,
2013-09-12 09:50:00,69.3,68.4,29.96,NW,317,2.0,3.5,97,0.00,CLR,,0.66,WeatherDisplay:10.37,2013-09-12 13:50:00,
2013-09-12 09:52:00,69.2,68.3,29.96,NNW,338,0.8,2.3,97,0.00,CLR,,0.66,WeatherDisplay:10.37,2013-09-12 13:52:00,
2013-09-12 09:54:00,69.2,68.0,29.96,NW,323,0.7,5.8,96,0.00,CLR,,0.66,WeatherDisplay:10.37,2013-09-12 13:54:00,
2013-09-12 09:55:00,69.1,67.9,29.96,North,5,2.5,3.5,96,0.00,CLR,,0.66,WeatherDisplay:10.37,2013-09-12 13:55:00,
2013-09-12 09:57:00,69.1,67.9,29.96,NNW,340,2.2,3.5,96,0.00,CLR,,0.66,WeatherDisplay:10.37,2013-09-12 13:57:00,
2013-09-12 09:58:00,69.1,67.6,29.96,NNW,338,0.8,3.5,95,0.00,CLR,,0.66,WeatherDisplay:10.37,2013-09-12 13:58:00,
2013-09-12 09:59:00,69.1,67.6,29.96,North,360,1.7,3.5,95,0.00,CLR,,0.66,WeatherDisplay:10.37,2013-09-12 13:59:00,
2013-09-12 10:00:00,69.1,67.6,29.96,NNW,344,1.5,3.5,95,0.00,CLR,,0.66,WeatherDisplay:10.37,2013-09-12 14:00:00,
2013-09-12 10:02:00,69.1,67.6,29.96,NNW,328,1.2,3.5,95,0.00,CLR,,0.66,WeatherDisplay:10.37,2013-09-12 14:02:00,
2013-09-12 10:03:00,69.1,67.6,29.97,NNW,342,0.5,3.5,95,0.00,CLR,,0.66,WeatherDisplay:10.37,2013-09-12 14:03:00,
2013-09-12 10:05:00,69.1,67.6,29.97,NNW,337,0.6,2.3,95,0.00,CLR,,0.66,WeatherDisplay:10.37,2013-09-12 14:05:00,
2013-09-12 10:06:00,69.2,67.7,29.97,NNW,336,1.8,5.0,95,0.00,CLR,,0.66,WeatherDisplay:10.37,2013-09-12 14:06:00,
2013-09-12 10:07:00,69.1,67.3,29.97,NNE,13,3.3,4.6,94,0.00,CLR,,0.66,WeatherDisplay:10.37,2013-09-12 14:07:00,
2013-09-12 10:09:00,69.2,67.4,29.97,North,355,1.4,3.5,94,0.00,CLR,,0.66,WeatherDisplay:10.37,2013-09-12 14:09:00,
2013-09-12 10:10:00,69.2,67.4,29.97,North,355,1.3,3.5,94,0.00,CLR,,0.66,WeatherDisplay:10.37,2013-09-12 14:10:00,
2013-09-12 10:11:00,69.2,67.4,29.97,North,355,0.1,1.1,94,0.00,CLR,,0.66,WeatherDisplay:10.37,2013-09-12 14:11:00,
2013-09-12 10:13:00,69.3,67.5,29.97,North,360,0.5,3.5,94,0.00,CLR,,0.66,WeatherDisplay:10.37,2013-09-12 14:13:00,
2013-09-12 10:14:00,69.3,67.5,29.97,NNW,328,0.9,1.1,94,0.00,CLR,,0.66,WeatherDisplay:10.37,2013-09-12 14:14:00,
2013-09-12 10:15:00,69.3,67.5,29.96,NNW,346,1.7,3.5,94,0.00,CLR,,0.66,WeatherDisplay:10.37,2013-09-12 14:15:00,
2013-09-12 10:16:00,69.3,67.2,29.96,NNW,346,0.0,1.1,93,0.00,CLR,,0.66,WeatherDisplay:10.37,2013-09-12 14:16:00,
2013-09-12 10:18:00,69.3,67.2,29.96,NNW,339,1.8,4.6,93,0.00,CLR,,0.66,WeatherDisplay:10.37,2013-09-12 14:18:00,
2013-09-12 10:20:00,69.3,67.2,29.97,North,5,2.2,3.5,93,0.00,CLR,,0.66,WeatherDisplay:10.37,2013-09-12 14:20:00,
2013-09-12 10:21:00,69.4,67.0,29.97,NNW,348,0.5,1.1,92,0.00,CLR,,0.66,WeatherDisplay:10.37,2013-09-12 14:21:00,
2013-09-12 10:24:00,69.5,67.4,29.97,NNW,332,1.2,3.0,93,0.00,CLR,,0.66,WeatherDisplay:10.37,2013-09-12 14:24:00,
2013-09-12 10:25:00,69.5,67.4,29.97,NNW,346,1.9,3.5,93,0.00,CLR,,0.66,WeatherDisplay:10.37,2013-09-12 14:25:00,
2013-09-12 10:26:00,69.5,67.1,29.97,NNW,342,0.5,3.5,92,0.00,CLR,,0.66,WeatherDisplay:10.37,2013-09-12 14:26:00,
2013-09-12 10:27:00,69.6,67.2,29.97,NNW,341,0.3,2.3,92,0.00,CLR,,0.66,WeatherDisplay:10.37,2013-09-12 14:27:00,
2013-09-12 10:30:00,69.7,67.6,29.97,NNW,340,0.1,1.1,93,0.00,CLR,,0.66,WeatherDisplay:10.37,2013-09-12 14:30:00,
2013-09-12 10:31:00,69.8,67.7,29.97,NNW,333,1.0,3.5,93,0.00,CLR,,0.66,WeatherDisplay:10.37,2013-09-12 14:31:00,
2013-09-12 10:32:00,69.8,67.7,29.97,NNW,333,0.0,0.0,93,0.00,CLR,,0.66,WeatherDisplay:10.37,2013-09-12 14:32:00,
2013-09-12 10:35:00,70.0,68.2,29.97,NW,325,0.4,2.3,94,0.00,CLR,,0.66,WeatherDisplay:10.37,2013-09-12 14:35:00,
2013-09-12 10:36:00,70.1,68.3,29.97,NW,310,0.8,2.3,94,0.00,CLR,,0.66,WeatherDisplay:10.37,2013-09-12 14:36:00,
2013-09-12 10:37:00,70.1,68.0,29.97,NW,310,0.5,2.3,93,0.00,CLR,,0.66,WeatherDisplay:10.37,2013-09-12 14:37:00,
2013-09-12 10:38:00,70.2,68.1,29.97,NW,311,0.3,1.1,93,0.00,CLR,,0.66,WeatherDisplay:10.37,2013-09-12 14:38:00,
2013-09-12 10:40:00,70.3,68.2,29.97,NW,311,0.2,1.1,93,0.00,CLR,,0.66,WeatherDisplay:10.37,2013-09-12 14:40:00,
2013-09-12 10:41:00,70.3,68.2,29.97,NW,311,0.1,1.1,93,0.00,CLR,,0.66,WeatherDisplay:10.37,2013-09-12 14:41:00,
2013-09-12 10:42:00,70.3,68.2,29.97,NW,311,0.2,1.1,93,0.00,CLR,,0.66,WeatherDisplay:10.37,2013-09-12 14:42:00,
2013-09-12 10:43:00,70.3,67.9,29.97,NW,311,0.1,1.1,92,0.00,CLR,,0.66,WeatherDisplay:10.37,2013-09-12 14:43:00,
2013-09-12 10:46:00,70.4,68.0,29.97,NW,313,0.3,1.1,92,0.00,CLR,,0.66,WeatherDisplay:10.37,2013-09-12 14:46:00,
2013-09-12 10:47:00,70.4,68.0,29.97,NW,313,0.1,1.1,92,0.00,CLR,,0.66,WeatherDisplay:10.37,2013-09-12 14:47:00,
2013-09-12 10:48:00,70.5,68.1,29.97,NW,313,0.2,1.1,92,0.00,CLR,,0.66,WeatherDisplay:10.37,2013-09-12 14:48:00,
2013-09-12 10:49:00,70.5,68.1,29.97,NW,313,0.4,2.3,92,0.00,CLR,,0.66,WeatherDisplay:10.37,2013-09-12 14:49:00,
2013-09-12 10:51:00,70.5,67.4,29.96,NW,319,1.0,2.3,90,0.00,CLR,,0.66,WeatherDisplay:10.37,2013-09-12 14:51:00,
2013-09-12 10:52:00,70.5,67.4,29.97,North,360,1.2,2.3,90,0.00,CLR,,0.66,WeatherDisplay:10.37,2013-09-12 14:52:00,
2013-09-12 10:53:00,70.5,67.4,29.96,NNW,333,1.2,3.5,90,0.00,CLR,,0.66,WeatherDisplay:10.37,2013-09-12 14:53:00,
2013-09-12 10:54:00,70.5,67.1,29.96,NNW,333,0.6,2.3,89,0.00,CLR,,0.66,WeatherDisplay:10.37,2013-09-12 14:54:00,
2013-09-12 10:56:00,70.5,67.1,29.97,NNW,333,0.0,1.1,89,0.00,CLR,,0.66,WeatherDisplay:10.37,2013-09-12 14:56:00,
2013-09-12 10:57:00,70.5,67.4,29.97,NW,326,0.8,3.5,90,0.00,CLR,,0.66,WeatherDisplay:10.37,2013-09-12 14:57:00,
2013-09-12 10:59:00,70.6,67.5,29.97,NW,321,0.0,2.3,90,0.00,CLR,,0.66,WeatherDisplay:10.37,2013-09-12 14:59:00,
2013-09-12 11:01:00,70.6,67.5,29.97,WNW,303,0.6,2.3,90,0.00,CLR,,0.66,WeatherDisplay:10.37,2013-09-12 15:01:00,
2013-09-12 11:02:00,70.6,67.5,29.97,WNW,303,0.0,1.1,90,0.00,CLR,,0.66,WeatherDisplay:10.37,2013-09-12 15:02:00,
2013-09-12 11:05:00,70.6,67.2,29.97,NW,313,0.0,2.0,89,0.00,CLR,,0.66,WeatherDisplay:10.37,2013-09-12 15:05:00,
2013-09-12 11:06:00,70.7,67.6,29.97,WNW,303,0.3,1.1,90,0.00,CLR,,0.66,WeatherDisplay:10.37,2013-09-12 15:06:00,
2013-09-12 11:07:00,70.7,67.0,29.97,NW,321,1.1,2.3,88,0.00,CLR,,0.66,WeatherDisplay:10.37,2013-09-12 15:07:00,
2013-09-12 11:10:00,70.8,67.7,29.97,NW,321,0.6,1.1,90,0.00,CLR,,0.66,WeatherDisplay:10.37,2013-09-12 15:10:00,
2013-09-12 11:11:00,70.8,67.4,29.98,NW,321,0.2,1.1,89,0.00,CLR,,0.66,WeatherDisplay:10.37,2013-09-12 15:11:00,
2013-09-12 11:12:00,70.8,67.7,29.98,NW,321,0.5,1.1,90,0.00,CLR,,0.66,WeatherDisplay:10.37,2013-09-12 15:12:00,
2013-09-12 11:13:00,70.8,67.4,29.98,NW,321,0.4,1.1,89,0.00,CLR,,0.66,WeatherDisplay:10.37,2013-09-12 15:13:00,
2013-09-12 11:16:00,70.8,66.7,29.98,NNW,340,1.3,3.5,87,0.00,CLR,,0.66,WeatherDisplay:10.37,2013-09-12 15:16:00,
2013-09-12 11:17:00,70.9,67.2,29.98,NNW,340,0.1,1.1,88,0.00,CLR,,0.66,WeatherDisplay:10.37,2013-09-12 15:17:00,
2013-09-12 11:18:00,70.9,67.2,29.98,NNW,340,0.3,2.3,88,0.00,CLR,,0.66,WeatherDisplay:10.37,2013-09-12 15:18:00,
2013-09-12 11:21:00,71.0,67.6,29.98,NW,312,1.1,2.3,89,0.00,CLR,,0.66,WeatherDisplay:10.37,2013-09-12 15:21:00,
2013-09-12 11:23:00,71.0,67.6,29.98,NW,312,0.2,3.5,89,0.00,CLR,,0.66,WeatherDisplay:10.37,2013-09-12 15:23:00,
2013-09-12 11:24:00,71.0,67.3,29.98,NW,319,0.2,2.3,88,0.00,CLR,,0.66,WeatherDisplay:10.37,2013-09-12 15:24:00,
2013-09-12 11:26:00,71.0,66.6,29.97,NNW,331,0.2,2.3,86,0.00,CLR,,0.66,WeatherDisplay:10.37,2013-09-12 15:26:00,
2013-09-12 11:28:00,71.0,66.3,29.97,North,9,0.3,3.0,85,0.00,CLR,,0.66,WeatherDisplay:10.37,2013-09-12 15:28:00,
2013-09-12 11:29:00,71.1,66.4,29.96,North,350,0.2,3.5,85,0.00,CLR,,0.66,WeatherDisplay:10.37,2013-09-12 15:29:00,
2013-09-12 11:31:00,71.1,65.7,29.97,NNW,345,1.5,3.5,83,0.00,CLR,,0.66,WeatherDisplay:10.37,2013-09-12 15:31:00,
2013-09-12 11:33:00,71.1,66.7,29.97,NNW,345,0.0,1.1,86,0.00,CLR,,0.66,WeatherDisplay:10.37,2013-09-12 15:33:00,
2013-09-12 11:34:00,71.1,66.7,29.97,NNW,345,0.3,1.1,86,0.00,CLR,,0.66,WeatherDisplay:10.37,2013-09-12 15:34:00,
2013-09-12 11:35:00,71.2,67.1,29.97,NNW,329,0.2,1.1,87,0.00,CLR,,0.66,WeatherDisplay:10.37,2013-09-12 15:35:00,
2013-09-12 11:36:00,71.2,67.1,29.97,NNW,329,0.0,1.1,87,0.00,CLR,,0.66,WeatherDisplay:10.37,2013-09-12 15:36:00,
2013-09-12 11:38:00,71.3,66.9,29.98,NW,309,1.0,3.5,86,0.00,CLR,,0.66,WeatherDisplay:10.37,2013-09-12 15:38:00,
2013-09-12 11:39:00,71.3,66.9,29.98,NNW,346,0.5,2.0,86,0.00,CLR,,0.66,WeatherDisplay:10.37,2013-09-12 15:39:00,
2013-09-12 11:40:00,71.3,66.2,29.98,NNW,347,1.4,2.3,84,0.00,CLR,,0.66,WeatherDisplay:10.37,2013-09-12 15:40:00,
2013-09-12 11:41:00,71.4,66.0,29.98,NNW,344,0.6,2.3,83,0.00,CLR,,0.66,WeatherDisplay:10.37,2013-09-12 15:41:00,
2013-09-12 11:43:00,71.5,66.8,29.98,NNW,344,0.3,1.1,85,0.00,CLR,,0.66,WeatherDisplay:10.37,2013-09-12 15:43:00,
2013-09-12 11:44:00,71.5,66.4,29.98,NNW,329,0.5,1.1,84,0.00,CLR,,0.66,WeatherDisplay:10.37,2013-09-12 15:44:00,
2013-09-12 11:45:00,71.6,66.5,29.98,NNW,329,0.7,3.0,84,0.00,CLR,,0.66,WeatherDisplay:10.37,2013-09-12 15:45:00,
2013-09-12 11:47:00,71.6,66.2,29.98,NW,311,0.8,3.5,83,0.00,CLR,,0.66,WeatherDisplay:10.37,2013-09-12 15:47:00,
2013-09-12 11:48:00,71.7,66.3,29.98,NW,311,0.3,1.1,83,0.00,CLR,,0.66,WeatherDisplay:10.37,2013-09-12 15:48:00,
2013-09-12 11:49:00,71.7,66.3,29.98,NW,311,0.0,1.1,83,0.00,CLR,,0.66,WeatherDisplay:10.37,2013-09-12 15:49:00,
2013-09-12 11:52:00,71.9,67.1,29.98,NW,311,0.3,1.1,85,0.00,CLR,,0.66,WeatherDisplay:10.37,2013-09-12 15:52:00,
2013-09-12 11:53:00,71.9,66.5,29.98,NW,311,0.1,1.1,83,0.00,CLR,,0.66,WeatherDisplay:10.37,2013-09-12 15:53:00,
2013-09-12 11:54:00,71.9,66.1,29.98,NW,311,0.1,1.1,82,0.00,CLR,,0.66,WeatherDisplay:10.37,2013-09-12 15:54:00,
2013-09-12 11:55:00,71.9,66.5,29.98,NW,311,0.0,1.0,83,0.00,CLR,,0.66,WeatherDisplay:10.37,2013-09-12 15:55:00,
2013-09-12 11:57:00,72.0,65.8,29.98,NW,311,1.0,3.5,81,0.00,CLR,,0.66,WeatherDisplay:10.37,2013-09-12 15:57:00,
2013-09-12 11:58:00,72.0,65.8,29.98,NW,311,0.5,2.3,81,0.00,CLR,,0.66,WeatherDisplay:10.37,2013-09-12 15:58:00,
2013-09-12 11:59:00,72.1,66.3,29.98,NW,311,0.0,0.0,82,0.00,CLR,,0.66,WeatherDisplay:10.37,2013-09-12 15:59:00,
2013-09-12 12:00:00,72.1,66.3,29.98,NW,311,0.0,0.0,82,0.00,CLR,,0.66,WeatherDisplay:10.37,2013-09-12 16:00:00,
2013-09-12 12:02:00,72.2,66.4,29.98,NW,311,0.7,2.3,82,0.00,CLR,,0.66,WeatherDisplay:10.37,2013-09-12 16:02:00,
2013-09-12 12:03:00,72.2,66.4,29.98,NW,311,0.5,2.3,82,0.00,CLR,,0.66,WeatherDisplay:10.37,2013-09-12 16:03:00,
2013-09-12 12:04:00,72.2,66.4,29.98,NW,311,0.0,1.1,82,0.00,CLR,,0.66,WeatherDisplay:10.37,2013-09-12 16:04:00,
2013-09-12 12:05:00,72.2,66.7,29.98,WNW,289,1.5,2.0,83,0.00,CLR,,0.66,WeatherDisplay:10.37,2013-09-12 16:05:00,
2013-09-12 12:07:00,72.2,66.7,29.98,West,270,2.6,4.6,83,0.00,CLR,,0.66,WeatherDisplay:10.37,2013-09-12 16:07:00,
2013-09-12 12:09:00,72.3,66.8,29.98,West,270,0.0,1.1,83,0.00,CLR,,0.66,WeatherDisplay:10.37,2013-09-12 16:09:00,
2013-09-12 12:10:00,72.3,66.1,29.98,West,270,0.4,1.1,81,0.00,CLR,,0.66,WeatherDisplay:10.37,2013-09-12 16:10:00,
2013-09-12 12:12:00,72.3,66.1,29.98,West,270,0.8,2.3,81,0.00,CLR,,0.66,WeatherDisplay:10.37,2013-09-12 16:12:00,
2013-09-12 12:14:00,72.3,65.8,29.98,West,270,0.0,1.1,80,0.00,CLR,,0.66,WeatherDisplay:10.37,2013-09-12 16:14:00,
2013-09-12 12:15:00,72.3,65.8,29.98,West,270,0.0,0.0,80,0.00,CLR,,0.66,WeatherDisplay:10.37,2013-09-12 16:15:00,
2013-09-12 12:16:00,72.3,65.8,29.98,West,270,0.0,0.0,80,0.00,CLR,,0.66,WeatherDisplay:10.37,2013-09-12 16:16:00,
2013-09-12 12:17:00,72.3,66.1,29.98,West,270,0.0,0.0,81,0.00,CLR,,0.66,WeatherDisplay:10.37,2013-09-12 16:17:00,
2013-09-12 12:19:00,72.4,65.9,29.98,West,270,0.3,0.0,80,0.00,CLR,,0.66,WeatherDisplay:10.37,2013-09-12 16:19:00,
2013-09-12 12:20:00,72.4,66.2,29.98,West,270,0.0,1.0,81,0.00,CLR,,0.66,WeatherDisplay:10.37,2013-09-12 16:20:00,
2013-09-12 12:22:00,72.5,67.0,29.97,West,270,0.3,3.0,83,0.00,CLR,,0.66,WeatherDisplay:10.37,2013-09-12 16:22:00,
2013-09-12 12:25:00,72.7,66.2,29.97,West,270,1.0,3.0,80,0.00,CLR,,0.66,WeatherDisplay:10.37,2013-09-12 16:25:00,
2013-09-12 12:26:00,72.8,65.9,29.97,West,270,2.1,3.5,79,0.00,CLR,,0.66,WeatherDisplay:10.37,2013-09-12 16:26:00,
2013-09-12 12:27:00,73.0,66.8,29.97,WNW,300,1.5,4.6,81,0.00,CLR,,0.66,WeatherDisplay:10.37,2013-09-12 16:27:00,
2013-09-12 12:28:00,73.1,66.9,29.97,West,264,1.9,5.0,81,0.00,CLR,,0.66,WeatherDisplay:10.37,2013-09-12 16:28:00,
2013-09-12 12:30:00,73.3,64.1,29.97,WNW,288,1.6,4.6,73,0.00,CLR,,0.66,WeatherDisplay:10.37,2013-09-12 16:30:00,
2013-09-12 12:31:00,73.4,65.7,29.97,WNW,286,2.3,3.5,77,0.00,CLR,,0.66,WeatherDisplay:10.37,2013-09-12 16:31:00,
2013-09-12 12:32:00,73.7,65.7,29.97,NW,314,1.2,3.5,76,0.00,CLR,,0.66,WeatherDisplay:10.37,2013-09-12 16:32:00,
2013-09-12 12:33:00,73.7,64.9,29.97,NW,314,0.7,3.5,74,0.00,CLR,,0.66,WeatherDisplay:10.37,2013-09-12 16:33:00,
2013-09-12 12:35:00,73.9,64.7,29.97,NW,314,0.0,0.0,73,0.00,CLR,,0.66,WeatherDisplay:10.37,2013-09-12 16:35:00,
2013-09-12 12:36:00,74.1,65.7,29.97,NNW,338,1.2,3.5,75,0.00,CLR,,0.66,WeatherDisplay:10.37,2013-09-12 16:36:00,
2013-09-12 12:38:00,74.4,64.4,29.97,NW,313,1.9,3.5,71,0.00,CLR,,0.66,WeatherDisplay:10.37,2013-09-12 16:38:00,
2013-09-12 12:40:00,74.7,63.4,29.97,North,355,1.0,3.5,68,0.00,CLR,,0.66,WeatherDisplay:10.37,2013-09-12 16:40:00,
2013-09-12 12:41:00,74.9,64.0,29.97,NNW,343,1.6,3.5,69,0.00,CLR,,0.66,WeatherDisplay:10.37,2013-09-12 16:41:00,
2013-09-12 12:42:00,75.0,63.7,29.97,NNW,343,0.6,3.5,68,0.00,CLR,,0.66,WeatherDisplay:10.37,2013-09-12 16:42:00,
2013-09-12 12:43:00,75.2,64.3,29.97,WNW,287,0.2,3.0,69,0.00,CLR,,0.66,WeatherDisplay:10.37,2013-09-12 16:43:00,
2013-09-12 12:46:00,75.6,63.9,29.97,West,268,2.3,4.6,67,0.00,CLR,,0.66,WeatherDisplay:10.37,2013-09-12 16:46:00,
2013-09-12 12:47:00,75.6,62.1,29.97,WSW,255,2.0,3.5,63,0.00,CLR,,0.66,WeatherDisplay:10.37,2013-09-12 16:47:00,
2013-09-12 12:48:00,75.6,63.0,29.96,WSW,255,0.7,2.3,65,0.00,CLR,,0.66,WeatherDisplay:10.37,2013-09-12 16:48:00,
2013-09-12 12:51:00,75.7,63.5,29.96,WSW,255,0.0,0.0,66,0.00,CLR,,0.66,WeatherDisplay:10.37,2013-09-12 16:51:00,
2013-09-12 12:52:00,75.9,63.7,29.96,NNW,329,2.0,2.3,66,0.00,CLR,,0.66,WeatherDisplay:10.37,2013-09-12 16:52:00,
2013-09-12 12:53:00,76.0,63.4,29.96,NNW,329,1.5,2.3,65,0.00,CLR,,0.66,WeatherDisplay:10.37,2013-09-12 16:53:00,
2013-09-12 12:54:00,76.2,65.3,29.96,NNW,327,0.8,3.5,69,0.00,CLR,,0.66,WeatherDisplay:10.37,2013-09-12 16:54:00,
2013-09-12 12:56:00,76.6,63.5,29.96,NNW,327,0.3,1.1,64,0.00,CLR,,0.66,WeatherDisplay:10.37,2013-09-12 16:56:00,
2013-09-12 12:58:00,76.8,62.8,29.96,NW,317,2.4,3.5,62,0.00,CLR,,0.66,WeatherDisplay:10.37,2013-09-12 16:58:00,
2013-09-12 13:00:00,76.9,62.4,29.96,NW,313,2.0,4.0,61,0.00,CLR,,0.66,WeatherDisplay:10.37,2013-09-12 17:00:00,
2013-09-12 13:01:00,77.1,62.6,29.96,NW,317,1.8,5.8,61,0.00,CLR,,0.66,WeatherDisplay:10.37,2013-09-12 17:01:00,
2013-09-12 13:03:00,77.3,60.9,29.96,NNW,333,1.5,3.5,57,0.00,CLR,,0.66,WeatherDisplay:10.37,2013-09-12 17:03:00,
2013-09-12 13:04:00,77.3,61.4,29.96,NNW,333,1.3,3.5,58,0.00,CLR,,0.66,WeatherDisplay:10.37,2013-09-12 17:04:00,
2013-09-12 13:05:00,77.3,62.3,29.96,NNW,346,0.8,3.5,60,0.00,CLR,,0.66,WeatherDisplay:10.37,2013-09-12 17:05:00,
2013-09-12 13:06:00,77.4,61.9,29.96,NNW,333,2.2,3.5,59,0.00,CLR,,0.66,WeatherDisplay:10.37,2013-09-12 17:06:00,
2013-09-12 13:07:00,77.5,62.5,29.96,North,355,0.6,2.3,60,0.00,CLR,,0.66,WeatherDisplay:10.37,2013-09-12 17:07:00,
2013-09-12 13:08:00,77.6,62.6,29.96,North,351,0.7,1.1,60,0.00,CLR,,0.66,WeatherDisplay:10.37,2013-09-12 17:08:00,
2013-09-12 13:10:00,77.8,61.8,29.96,NNW,345,0.4,1.1,58,0.00,CLR,,0.66,WeatherDisplay:10.37,2013-09-12 17:10:00,
2013-09-12 13:11:00,77.8,61.8,29.95,NNW,342,0.8,3.0,58,0.00,CLR,,0.66,WeatherDisplay:10.37,2013-09-12 17:11:00,
2013-09-12 13:12:00,77.9,60.9,29.95,NW,315,1.6,3.5,56,0.00,CLR,,0.66,WeatherDisplay:10.37,2013-09-12 17:12:00,
2013-09-12 13:13:00,78.0,62.5,29.95,WNW,291,0.2,2.3,59,0.00,CLR,,0.66,WeatherDisplay:10.37,2013-09-12 17:13:00,
2013-09-12 13:17:00,78.2,62.2,29.95,West,275,1.5,3.5,58,0.00,CLR,,0.66,WeatherDisplay:10.37,2013-09-12 17:17:00,
2013-09-12 13:18:00,78.2,64.1,29.95,West,278,0.9,3.5,62,0.00,CLR,,0.66,WeatherDisplay:10.37,2013-09-12 17:18:00,
2013-09-12 13:22:00,78.5,63.5,29.95,West,261,2.6,4.6,60,0.00,CLR,,0.66,WeatherDisplay:10.37,2013-09-12 17:22:00,
2013-09-12 13:23:00,78.6,64.5,29.95,West,261,0.9,3.5,62,0.00,CLR,,0.66,WeatherDisplay:10.37,2013-09-12 17:23:00,
2013-09-12 13:27:00,78.8,63.7,29.95,West,269,0.4,3.5,60,0.00,CLR,,0.66,WeatherDisplay:10.37,2013-09-12 17:27:00,
2013-09-12 13:28:00,78.8,63.7,29.95,West,269,0.1,1.1,60,0.00,CLR,,0.66,WeatherDisplay:10.37,2013-09-12 17:28:00,
2013-09-12 13:33:00,79.0,62.5,29.95,West,263,3.3,5.8,57,0.00,CLR,,0.66,WeatherDisplay:10.37,2013-09-12 17:33:00,
2013-09-12 13:34:00,79.1,64.0,29.95,West,271,2.4,5.8,60,0.00,CLR,,0.66,WeatherDisplay:10.37,2013-09-12 17:34:00,
2013-09-12 13:38:00,79.1,61.5,29.95,West,267,1.5,3.5,55,0.00,CLR,,0.66,WeatherDisplay:10.37,2013-09-12 17:38:00,
2013-09-12 13:39:00,79.1,62.6,29.95,SW,223,1.1,3.0,57,0.00,CLR,,0.66,WeatherDisplay:10.37,2013-09-12 17:39:00,
2013-09-12 13:40:00,79.1,62.1,29.95,SSW,211,2.6,4.6,56,0.00,CLR,,0.66,WeatherDisplay:10.37,2013-09-12 17:40:00,
2013-09-12 13:43:00,79.2,61.1,29.94,NNW,336,1.8,5.8,54,0.00,CLR,,0.66,WeatherDisplay:10.37,2013-09-12 17:43:00,
2013-09-12 13:44:00,79.2,60.1,29.94,NNW,336,1.2,5.8,52,0.00,CLR,,0.66,WeatherDisplay:10.37,2013-09-12 17:44:00,
2013-09-12 13:45:00,79.3,61.2,29.94,WSW,241,5.1,5.8,54,0.00,CLR,,0.66,WeatherDisplay:10.37,2013-09-12 17:45:00,
2013-09-12 13:46:00,79.4,61.3,29.94,WSW,256,4.9,7.0,54,0.00,CLR,,0.66,WeatherDisplay:10.37,2013-09-12 17:46:00,
2013-09-12 13:48:00,79.3,61.2,29.94,WSW,240,3.1,6.9,54,0.00,CLR,,0.66,WeatherDisplay:10.37,2013-09-12 17:48:00,
2013-09-12 13:49:00,79.3,61.7,29.94,WSW,240,1.6,3.5,55,0.00,CLR,,0.66,WeatherDisplay:10.37,2013-09-12 17:49:00,
2013-09-12 13:51:00,79.3,61.2,29.94,SW,221,1.6,3.5,54,0.00,CLR,,0.66,WeatherDisplay:10.37,2013-09-12 17:51:00,
2013-09-12 13:53:00,79.4,62.8,29.94,WSW,239,4.7,6.9,57,0.00,CLR,,0.66,WeatherDisplay:10.37,2013-09-12 17:53:00,
2013-09-12 13:54:00,79.5,62.9,29.94,WSW,249,5.3,7.0,57,0.00,CLR,,0.66,WeatherDisplay:10.37,2013-09-12 17:54:00,
2013-09-12 13:55:00,79.6,61.0,29.94,WSW,252,5.4,6.9,53,0.00,CLR,,0.66,WeatherDisplay:10.37,2013-09-12 17:55:00,
2013-09-12 13:57:00,79.5,61.4,29.94,WSW,240,3.3,4.6,54,0.00,CLR,,0.66,WeatherDisplay:10.37,2013-09-12 17:57:00,
2013-09-12 13:59:00,79.6,62.0,29.94,WNW,283,1.6,3.5,55,0.00,CLR,,0.66,WeatherDisplay:10.37,2013-09-12 17:59:00,
2013-09-12 14:00:00,79.6,62.0,29.94,West,265,3.3,5.8,55,0.00,CLR,,0.66,WeatherDisplay:10.37,2013-09-12 18:00:00,
2013-09-12 14:02:00,79.8,61.7,29.93,West,272,2.8,5.8,54,0.00,CLR,,0.66,WeatherDisplay:10.37,2013-09-12 18:02:00,
2013-09-12 14:03:00,79.9,61.2,29.93,West,272,0.0,2.3,53,0.00,CLR,,0.66,WeatherDisplay:10.37,2013-09-12 18:03:00,
2013-09-12 14:04:00,79.9,61.2,29.93,West,272,0.1,1.1,53,0.00,CLR,,0.66,WeatherDisplay:10.37,2013-09-12 18:04:00,
2013-09-12 14:05:00,80.1,62.5,29.93,SW,215,3.1,4.6,55,0.00,CLR,,0.66,WeatherDisplay:10.37,2013-09-12 18:05:00,
2013-09-12 14:08:00,80.4,62.2,29.93,WSW,242,5.2,6.9,54,0.00,CLR,,0.66,WeatherDisplay:10.37,2013-09-12 18:08:00,
2013-09-12 14:09:00,80.5,62.3,29.93,WSW,238,4.9,6.9,54,0.00,CLR,,0.66,WeatherDisplay:10.37,2013-09-12 18:09:00,
2013-09-12 14:11:00,80.5,61.3,29.93,WSW,246,3.9,5.8,52,0.00,CLR,,0.66,WeatherDisplay:10.37,2013-09-12 18:11:00,
2013-09-12 14:14:00,80.5,62.3,29.93,SW,234,6.6,8.1,54,0.00,CLR,,0.66,WeatherDisplay:10.37,2013-09-12 18:14:00,
2013-09-12 14:16:00,80.5,61.8,29.92,SSW,199,3.7,8.1,53,0.00,CLR,,0.66,WeatherDisplay:10.37,2013-09-12 18:16:00,
2013-09-12 14:19:00,80.9,61.1,29.93,WSW,246,3.0,5.8,51,0.00,CLR,,0.66,WeatherDisplay:10.37,2013-09-12 18:19:00,
2013-09-12 14:20:00,80.9,62.7,29.92,West,267,2.0,5.8,54,0.00,CLR,,0.66,WeatherDisplay:10.37,2013-09-12 18:20:00,
2013-09-12 14:22:00,81.2,61.4,29.92,NW,305,2.4,6.9,51,0.00,CLR,,0.66,WeatherDisplay:10.37,2013-09-12 18:22:00,
2013-09-12 14:24:00,81.5,62.2,29.92,WSW,257,2.4,4.6,52,0.00,CLR,,0.66,WeatherDisplay:10.37,2013-09-12 18:24:00,
2013-09-12 14:25:00,81.5,62.2,29.92,WSW,243,3.1,7.0,52,0.00,CLR,,0.66,WeatherDisplay:10.37,2013-09-12 18:25:00,
2013-09-12 14:26:00,81.6,61.2,29.92,SW,236,4.3,6.9,50,0.00,CLR,,0.66,WeatherDisplay:10.37,2013-09-12 18:26:00,
2013-09-12 14:28:00,81.6,62.3,29.92,SSW,205,5.0,6.9,52,0.00,CLR,,0.66,WeatherDisplay:10.37,2013-09-12 18:28:00,
2013-09-12 14:29:00,81.6,61.7,29.92,West,269,6.5,9.2,51,0.00,CLR,,0.66,WeatherDisplay:10.37,2013-09-12 18:29:00,
2013-09-12 14:30:00,81.6,61.7,29.92,West,276,5.5,9.2,51,0.00,CLR,,0.66,WeatherDisplay:10.37,2013-09-12 18:30:00,
2013-09-12 14:32:00,81.6,61.2,29.92,WSW,242,3.8,7.0,50,0.00,CLR,,0.66,WeatherDisplay:10.37,2013-09-12 18:32:00,
2013-09-12 14:33:00,81.5,61.1,29.92,SSW,209,4.0,6.9,50,0.00,CLR,,0.66,WeatherDisplay:10.37,2013-09-12 18:33:00,
2013-09-12 14:34:00,81.6,62.3,29.92,SW,236,5.7,9.2,52,0.00,CLR,,0.66,WeatherDisplay:10.37,2013-09-12 18:34:00,
2013-09-12 14:35:00,81.6,61.7,29.92,WSW,242,6.0,9.0,51,0.00,CLR,,0.66,WeatherDisplay:10.37,2013-09-12 18:35:00,
2013-09-12 14:37:00,81.7,60.1,29.92,WSW,242,8.1,9.2,48,0.00,CLR,,0.66,WeatherDisplay:10.37,2013-09-12 18:37:00,
2013-09-12 14:39:00,81.5,61.1,29.92,WSW,248,4.8,8.1,50,0.00,CLR,,0.66,WeatherDisplay:10.37,2013-09-12 18:39:00,
2013-09-12 14:40:00,81.5,61.1,29.92,WSW,255,4.6,8.1,50,0.00,CLR,,0.66,WeatherDisplay:10.37,2013-09-12 18:40:00,
2013-09-12 14:41:00,81.6,62.8,29.92,West,271,7.0,8.0,53,0.00,CLR,,0.66,WeatherDisplay:10.37,2013-09-12 18:41:00,
2013-09-12 14:42:00,81.6,61.2,29.92,West,267,8.0,11.5,50,0.00,CLR,,0.66,WeatherDisplay:10.37,2013-09-12 18:42:00,
2013-09-12 14:44:00,81.7,60.7,29.92,WSW,239,5.0,9.2,49,0.00,CLR,,0.66,WeatherDisplay:10.37,2013-09-12 18:44:00,
2013-09-12 14:45:00,81.7,60.7,29.92,SW,215,4.4,9.2,49,0.00,CLR,,0.66,WeatherDisplay:10.37,2013-09-12 18:45:00,
2013-09-12 14:47:00,81.8,61.9,29.92,SSW,202,3.4,8.1,51,0.00,CLR,,0.66,WeatherDisplay:10.37,2013-09-12 18:47:00,
2013-09-12 14:48:00,81.8,61.9,29.92,WSW,244,4.9,10.0,51,0.00,CLR,,0.66,WeatherDisplay:10.37,2013-09-12 18:48:00,
2013-09-12 14:49:00,81.8,60.8,29.92,West,263,7.4,10.4,49,0.00,CLR,,0.66,WeatherDisplay:10.37,2013-09-12 18:49:00,
2013-09-12 14:50:00,81.8,60.8,29.92,WSW,240,7.6,11.5,49,0.00,CLR,,0.66,WeatherDisplay:10.37,2013-09-12 18:50:00,
2013-09-12 14:52:00,81.5,60.5,29.92,West,266,6.8,11.5,49,0.00,CLR,,0.66,WeatherDisplay:10.37,2013-09-12 18:52:00,
2013-09-12 14:53:00,81.6,60.6,29.92,WNW,287,6.3,8.1,49,0.00,CLR,,0.66,WeatherDisplay:10.37,2013-09-12 18:53:00,
2013-09-12 14:55:00,81.6,60.0,29.92,WSW,252,6.0,12.0,48,0.00,CLR,,0.66,WeatherDisplay:10.37,2013-09-12 18:55:00,
2013-09-12 14:56:00,81.8,60.2,29.92,West,265,5.5,10.4,48,0.00,CLR,,0.66,WeatherDisplay:10.37,2013-09-12 18:56:00,
2013-09-12 14:58:00,81.8,60.2,29.91,West,275,3.3,5.8,48,0.00,CLR,,0.66,WeatherDisplay:10.37,2013-09-12 18:58:00,
2013-09-12 14:59:00,81.8,60.2,29.91,West,281,2.2,5.8,48,0.00,CLR,,0.66,WeatherDisplay:10.37,2013-09-12 18:59:00,
2013-09-12 15:00:00,81.8,60.2,29.91,NW,315,1.9,4.6,48,0.00,CLR,,0.66,WeatherDisplay:10.37,2013-09-12 19:00:00,
2013-09-12 15:02:00,82.0,59.8,29.91,SW,225,5.7,8.1,47,0.00,CLR,,0.66,WeatherDisplay:10.37,2013-09-12 19:02:00,
2013-09-12 15:04:00,82.0,59.8,29.91,WSW,257,6.9,11.5,47,0.00,CLR,,0.66,WeatherDisplay:10.37,2013-09-12 19:04:00,
2013-09-12 15:05:00,82.1,59.3,29.91,SW,234,10.6,13.8,46,0.00,CLR,,0.66,WeatherDisplay:10.37,2013-09-12 19:05:00,
2013-09-12 15:08:00,82.2,61.1,29.91,West,273,7.7,11.5,49,0.00,CLR,,0.66,WeatherDisplay:10.37,2013-09-12 19:08:00,
2013-09-12 15:09:00,82.3,60.1,29.91,WSW,242,6.9,11.5,47,0.00,CLR,,0.66,WeatherDisplay:10.37,2013-09-12 19:09:00,
2013-09-12 15:10:00,82.3,60.1,29.91,WSW,240,7.0,11.5,47,0.00,CLR,,0.66,WeatherDisplay:10.37,2013-09-12 19:10:00,
2013-09-12 15:11:00,82.3,60.1,29.91,WSW,256,6.0,10.4,47,0.00,CLR,,0.66,WeatherDisplay:10.37,2013-09-12 19:11:00,
2013-09-12 15:13:00,82.2,60.0,29.90,WSW,244,3.2,6.9,47,0.00,CLR,,0.66,WeatherDisplay:10.37,2013-09-12 19:13:00,
2013-09-12 15:14:00,82.2,61.7,29.90,WSW,250,4.1,6.0,50,0.00,CLR,,0.66,WeatherDisplay:10.37,2013-09-12 19:14:00,
2013-09-12 15:15:00,82.2,61.7,29.90,West,260,4.8,9.0,50,0.00,CLR,,0.66,WeatherDisplay:10.37,2013-09-12 19:15:00,
2013-09-12 15:16:00,82.0,59.8,29.90,WSW,238,5.5,9.2,47,0.00,CLR,,0.66,WeatherDisplay:10.37,2013-09-12 19:16:00,
2013-09-12 15:18:00,82.0,59.8,29.90,WSW,256,5.2,7.0,47,0.00,CLR,,0.66,WeatherDisplay:10.37,2013-09-12 19:18:00,
2013-09-12 15:19:00,82.0,59.2,29.90,WSW,258,5.6,7.0,46,0.00,CLR,,0.66,WeatherDisplay:10.37,2013-09-12 19:19:00,
2013-09-12 15:20:00,82.1,60.5,29.90,WSW,254,6.3,6.9,48,0.00,CLR,,0.66,WeatherDisplay:10.37,2013-09-12 19:20:00,
2013-09-12 15:21:00,82.1,60.5,29.90,WSW,255,5.5,6.9,48,0.00,CLR,,0.66,WeatherDisplay:10.37,2013-09-12 19:21:00,
2013-09-12 15:22:00,82.2,61.1,29.90,West,272,4.1,12.0,49,0.00,CLR,,0.66,WeatherDisplay:10.37,2013-09-12 19:22:00,
2013-09-12 15:23:00,82.2,58.7,29.90,West,267,6.0,12.7,45,0.00,CLR,,0.66,WeatherDisplay:10.37,2013-09-12 19:23:00,
2013-09-12 15:25:00,82.2,58.1,29.90,WSW,247,5.6,7.0,44,0.00,CLR,,0.66,WeatherDisplay:10.37,2013-09-12 19:25:00,
2013-09-12 15:26:00,82.3,58.2,29.90,WSW,246,6.1,7.0,44,0.00,CLR,,0.66,WeatherDisplay:10.37,2013-09-12 19:26:00,
2013-09-12 15:27:00,82.3,58.8,29.90,SW,234,4.0,8.1,45,0.00,CLR,,0.66,WeatherDisplay:10.37,2013-09-12 19:27:00,
2013-09-12 15:29:00,82.2,60.6,29.90,West,261,1.0,4.6,48,0.00,CLR,,0.66,WeatherDisplay:10.37,2013-09-12 19:29:00,
2013-09-12 15:30:00,82.2,59.4,29.89,WSW,258,8.3,11.5,46,0.00,CLR,,0.66,WeatherDisplay:10.37,2013-09-12 19:30:00,
2013-09-12 15:31:00,82.1,59.3,29.89,West,272,8.1,11.5,46,0.00,CLR,,0.66,WeatherDisplay:10.37,2013-09-12 19:31:00,
2013-09-12 15:32:00,81.8,60.2,29.89,SW,234,8.1,13.8,48,0.00,CLR,,0.66,WeatherDisplay:10.37,2013-09-12 19:32:00,
2013-09-12 15:35:00,81.8,60.2,29.89,WSW,258,5.5,8.1,48,0.00,CLR,,0.66,WeatherDisplay:10.37,2013-09-12 19:35:00,
2013-09-12 15:36:00,81.9,60.3,29.89,WSW,254,5.6,9.2,48,0.00,CLR,,0.66,WeatherDisplay:10.37,2013-09-12 19:36:00,
2013-09-12 15:37:00,82.1,60.5,29.89,West,272,9.4,12.7,48,0.00,CLR,,0.66,WeatherDisplay:10.37,2013-09-12 19:37:00,
2013-09-12 15:41:00,82.7,59.8,29.89,NW,309,9.4,12.7,46,0.00,CLR,,0.66,WeatherDisplay:10.37,2013-09-12 19:41:00,
2013-09-12 15:42:00,82.9,59.4,29.89,West,279,6.7,10.4,45,0.00,CLR,,0.66,WeatherDisplay:10.37,2013-09-12 19:42:00,
2013-09-12 15:43:00,82.9,59.4,29.89,SW,234,8.5,11.5,45,0.00,CLR,,0.66,WeatherDisplay:10.37,2013-09-12 19:43:00,
2013-09-12 15:46:00,83.0,58.2,29.88,West,261,5.8,6.9,43,0.00,CLR,,0.66,WeatherDisplay:10.37,2013-09-12 19:46:00,
2013-09-12 15:47:00,83.0,60.7,29.88,NW,314,1.7,5.8,47,0.00,CLR,,0.66,WeatherDisplay:10.37,2013-09-12 19:47:00,
2013-09-12 15:48:00,83.0,60.1,29.88,SW,236,2.1,3.5,46,0.00,CLR,,0.66,WeatherDisplay:10.37,2013-09-12 19:48:00,
2013-09-12 15:49:00,83.1,58.9,29.88,West,265,4.5,5.0,44,0.00,CLR,,0.66,WeatherDisplay:10.37,2013-09-12 19:49:00,
2013-09-12 15:52:00,82.7,58.6,29.88,West,264,7.4,12.7,44,0.00,CLR,,0.66,WeatherDisplay:10.37,2013-09-12 19:52:00,
2013-09-12 15:53:00,82.0,59.2,29.88,WNW,294,6.0,12.7,46,0.00,CLR,,0.66,WeatherDisplay:10.37,2013-09-12 19:53:00,
2013-09-12 15:55:00,81.5,58.7,29.88,West,279,6.3,10.4,46,0.00,CLR,,0.66,WeatherDisplay:10.37,2013-09-12 19:55:00,
2013-09-12 15:57:00,81.1,59.6,29.88,West,262,4.9,8.1,48,0.00,CLR,,0.66,WeatherDisplay:10.37,2013-09-12 19:57:00,
2013-09-12 15:58:00,80.8,58.1,29.88,West,265,7.7,11.5,46,0.00,CLR,,0.66,WeatherDisplay:10.37,2013-09-12 19:58:00,
2013-09-12 16:00:00,80.3,58.2,29.88,WSW,248,7.6,11.5,47,0.00,CLR,,0.66,WeatherDisplay:10.37,2013-09-12 20:00:00,
2013-09-12 16:02:00,80.1,58.6,29.88,WSW,242,6.1,10.4,48,0.00,CLR,,0.66,WeatherDisplay:10.37,2013-09-12 20:02:00,
2013-09-12 16:03:00,80.2,59.3,29.88,WNW,282,4.2,6.0,49,0.00,CLR,,0.66,WeatherDisplay:10.37,2013-09-12 20:03:00,
2013-09-12 16:06:00,80.9,59.4,29.87,West,265,6.9,10.4,48,0.00,CLR,,0.66,WeatherDisplay:10.37,2013-09-12 20:06:00,
2013-09-12 16:07:00,81.1,59.6,29.87,SW,228,6.7,10.4,48,0.00,CLR,,0.66,WeatherDisplay:10.37,2013-09-12 20:07:00,
2013-09-12 16:08:00,81.2,60.2,29.87,West,259,5.1,10.4,49,0.00,CLR,,0.66,WeatherDisplay:10.37,2013-09-12 20:08:00,
2013-09-12 16:11:00,80.7,58.0,29.87,SW,222,10.1,12.7,46,0.00,CLR,,0.66,WeatherDisplay:10.37,2013-09-12 20:11:00,
2013-09-12 16:12:00,80.5,58.4,29.87,WSW,254,9.6,11.5,47,0.00,CLR,,0.66,WeatherDisplay:10.37,2013-09-12 20:12:00,
2013-09-12 16:13:00,80.2,59.3,29.88,West,263,7.4,10.4,49,0.00,CLR,,0.66,WeatherDisplay:10.37,2013-09-12 20:13:00,
2013-09-12 16:16:00,79.7,59.4,29.88,WNW,289,4.4,8.1,50,0.00,CLR,,0.66,WeatherDisplay:10.37,2013-09-12 20:16:00,
2013-09-12 16:17:00,79.6,59.3,29.87,WSW,255,4.3,9.2,50,0.00,CLR,,0.66,WeatherDisplay:10.37,2013-09-12 20:17:00,
2013-09-12 16:18:00,79.5,59.2,29.87,WSW,245,5.7,8.1,50,0.00,CLR,,0.66,WeatherDisplay:10.37,2013-09-12 20:18:00,
2013-09-12 16:21:00,79.1,60.0,29.87,West,266,5.3,8.1,52,0.00,CLR,,0.66,WeatherDisplay:10.37,2013-09-12 20:21:00,
2013-09-12 16:22:00,79.1,60.0,29.87,West,270,4.6,4.6,52,0.00,CLR,,0.66,WeatherDisplay:10.37,2013-09-12 20:22:00,
2013-09-12 16:23:00,79.0,60.4,29.87,WSW,242,3.6,4.6,53,0.00,CLR,,0.66,WeatherDisplay:10.37,2013-09-12 20:23:00,
2013-09-12 16:26:00,78.8,59.7,29.86,WSW,243,5.4,6.9,52,0.00,CLR,,0.66,WeatherDisplay:10.37,2013-09-12 20:26:00,
2013-09-12 16:27:00,78.7,59.0,29.86,West,265,5.1,8.0,51,0.00,CLR,,0.66,WeatherDisplay:10.37,2013-09-12 20:27:00,
2013-09-12 16:28:00,78.7,59.6,29.86,SW,225,5.6,8.1,52,0.00,CLR,,0.66,WeatherDisplay:10.37,2013-09-12 20:28:00,
2013-09-12 16:32:00,78.5,59.9,29.86,WSW,253,4.9,6.9,53,0.00,CLR,,0.66,WeatherDisplay:10.37,2013-09-12 20:32:00,
2013-09-12 16:33:00,78.4,59.3,29.86,WSW,254,5.4,6.9,52,0.00,CLR,,0.66,WeatherDisplay:10.37,2013-09-12 20:33:00,
2013-09-12 16:35:00,78.3,59.2,29.86,WSW,251,4.0,6.9,52,0.00,CLR,,0.66,WeatherDisplay:10.37,2013-09-12 20:35:00,
2013-09-12 16:38:00,78.1,59.6,29.87,WSW,257,5.9,9.2,53,0.00,CLR,,0.66,WeatherDisplay:10.37,2013-09-12 20:38:00,
2013-09-12 16:40:00,78.0,60.0,29.86,WSW,245,3.7,4.6,54,0.00,CLR,,0.66,WeatherDisplay:10.37,2013-09-12 20:40:00,
2013-09-12 16:41:00,77.9,60.4,29.86,WSW,246,3.3,4.6,55,0.00,CLR,,0.66,WeatherDisplay:10.37,2013-09-12 20:41:00,
2013-09-12 16:43:00,77.8,59.3,29.85,SW,219,4.0,5.8,53,0.00,CLR,,0.66,WeatherDisplay:10.37,2013-09-12 20:43:00,
2013-09-12 16:44:00,77.6,60.2,29.85,SW,233,5.4,6.9,55,0.00,CLR,,0.66,WeatherDisplay:10.37,2013-09-12 20:44:00,
2013-09-12 16:45:00,77.5,60.6,29.85,WSW,246,5.4,9.2,56,0.00,CLR,,0.66,WeatherDisplay:10.37,2013-09-12 20:45:00,
2013-09-12 16:47:00,77.2,61.3,29.85,SW,235,3.1,4.6,58,0.00,CLR,,0.66,WeatherDisplay:10.37,2013-09-12 20:47:00,
2013-09-12 16:48:00,77.0,62.0,29.85,WSW,246,2.2,3.5,60,0.00,CLR,,0.66,WeatherDisplay:10.37,2013-09-12 20:48:00,
2013-09-12 16:49:00,76.8,62.3,29.85,WSW,248,2.4,3.5,61,0.00,CLR,,0.66,WeatherDisplay:10.37,2013-09-12 20:49:00,
2013-09-12 16:52:00,76.3,61.4,29.86,West,261,3.6,5.8,60,0.00,CLR,,0.66,WeatherDisplay:10.37,2013-09-12 20:52:00,
2013-09-12 16:53:00,76.3,61.4,29.86,West,261,3.8,5.8,60,0.00,CLR,,0.66,WeatherDisplay:10.37,2013-09-12 20:53:00,
2013-09-12 16:54:00,76.2,61.3,29.86,WSW,244,2.2,5.8,60,0.00,CLR,,0.66,WeatherDisplay:10.37,2013-09-12 20:54:00,
2013-09-12 16:58:00,76.0,61.6,29.85,WSW,244,1.3,2.3,61,0.00,CLR,,0.66,WeatherDisplay:10.37,2013-09-12 20:58:00,
2013-09-12 16:59:00,75.9,61.9,29.85,WSW,244,1.6,3.5,62,0.00,CLR,,0.66,WeatherDisplay:10.37,2013-09-12 20:59:00,
2013-09-12 17:00:00,75.9,61.9,29.85,WSW,244,2.2,3.5,62,0.00,CLR,,0.66,WeatherDisplay:10.37,2013-09-12 21:00:00,
2013-09-12 17:03:00,75.7,62.7,29.85,WSW,244,0.2,2.3,64,0.00,CLR,,0.66,WeatherDisplay:10.37,2013-09-12 21:03:00,
2013-09-12 17:04:00,75.7,62.7,29.85,WSW,244,0.3,1.1,64,0.00,CLR,,0.66,WeatherDisplay:10.37,2013-09-12 21:04:00,
2013-09-12 17:05:00,75.7,63.1,29.85,WSW,244,0.6,2.3,65,0.00,CLR,,0.66,WeatherDisplay:10.37,2013-09-12 21:05:00,
2013-09-12 17:08:00,75.7,63.1,29.85,WSW,244,0.0,1.1,65,0.00,CLR,,0.66,WeatherDisplay:10.37,2013-09-12 21:08:00,
2013-09-12 17:09:00,75.7,64.0,29.85,WSW,244,0.0,0.0,67,0.00,CLR,,0.66,WeatherDisplay:10.37,2013-09-12 21:09:00,
2013-09-12 17:10:00,75.8,63.2,29.85,WSW,244,0.1,1.1,65,0.00,CLR,,0.66,WeatherDisplay:10.37,2013-09-12 21:10:00,
2013-09-12 17:11:00,75.9,62.8,29.85,West,259,2.2,3.5,64,0.00,CLR,,0.66,WeatherDisplay:10.37,2013-09-12 21:11:00,
2013-09-12 17:13:00,76.2,61.8,29.85,West,260,5.1,6.9,61,0.00,CLR,,0.66,WeatherDisplay:10.37,2013-09-12 21:13:00,
2013-09-12 17:14:00,76.2,62.2,29.85,West,267,4.7,6.9,62,0.00,CLR,,0.66,WeatherDisplay:10.37,2013-09-12 21:14:00,
2013-09-12 17:15:00,76.4,62.4,29.85,WNW,285,1.9,4.6,62,0.00,CLR,,0.66,WeatherDisplay:10.37,2013-09-12 21:15:00,
2013-09-12 17:17:00,76.4,62.9,29.85,NW,311,1.2,4.6,63,0.00,CLR,,0.66,WeatherDisplay:10.37,2013-09-12 21:17:00,
2013-09-12 17:18:00,76.5,62.5,29.86,NW,306,3.4,4.6,62,0.00,CLR,,0.66,WeatherDisplay:10.37,2013-09-12 21:18:00,
2013-09-12 17:19:00,76.5,62.5,29.86,NNW,339,2.1,8.1,62,0.00,CLR,,0.66,WeatherDisplay:10.37,2013-09-12 21:19:00,
2013-09-12 17:20:00,76.5,62.5,29.86,NW,326,2.4,4.6,62,0.00,CLR,,0.66,WeatherDisplay:10.37,2013-09-12 21:20:00,
2013-09-12 17:21:00,76.6,62.6,29.86,NW,321,1.7,3.5,62,0.00,CLR,,0.66,WeatherDisplay:10.37,2013-09-12 21:21:00,
2013-09-12 17:22:00,76.6,62.6,29.86,NNW,332,3.5,10.4,62,0.00,CLR,,0.66,WeatherDisplay:10.37,2013-09-12 21:22:00,
2013-09-12 17:23:00,76.6,62.1,29.86,NW,317,5.3,10.0,61,0.00,CLR,,0.66,WeatherDisplay:10.37,2013-09-12 21:23:00,
2013-09-12 17:24:00,76.7,61.8,29.86,NW,325,6.5,10.4,60,0.00,CLR,,0.66,WeatherDisplay:10.37,2013-09-12 21:24:00,
2013-09-12 17:25:00,76.7,61.3,29.86,NNE,19,5.2,10.4,59,0.00,CLR,,0.66,WeatherDisplay:10.37,2013-09-12 21:25:00,
2013-09-12 17:26:00,77.0,61.1,29.86,North,360,3.1,10.4,58,0.00,CLR,,0.66,WeatherDisplay:10.37,2013-09-12 21:26:00,
2013-09-12 17:27:00,77.2,60.8,29.86,North,355,5.3,7.0,57,0.00,CLR,,0.66,WeatherDisplay:10.37,2013-09-12 21:27:00,
2013-09-12 17:29:00,77.4,60.0,29.86,NNW,344,9.8,15.0,55,0.00,CLR,,0.66,WeatherDisplay:10.37,2013-09-12 21:29:00,
2013-09-12 17:30:00,77.4,58.9,29.86,NE,37,6.9,11.5,53,0.00,CLR,,0.66,WeatherDisplay:10.37,2013-09-12 21:30:00,
2013-09-12 17:32:00,77.4,60.0,29.86,NE,48,4.1,9.2,55,0.00,CLR,,0.66,WeatherDisplay:10.37,2013-09-12 21:32:00,
2013-09-12 17:34:00,77.4,60.5,29.86,NNW,347,2.8,6.9,56,0.00,CLR,,0.66,WeatherDisplay:10.37,2013-09-12 21:34:00,
2013-09-12 17:35:00,77.5,59.5,29.86,NNE,23,3.7,5.8,54,0.00,CLR,,0.66,WeatherDisplay:10.37,2013-09-12 21:35:00,
2013-09-12 17:36:00,77.5,59.5,29.86,North,5,2.1,4.0,54,0.00,CLR,,0.66,WeatherDisplay:10.37,2013-09-12 21:36:00,
2013-09-12 17:37:00,77.5,59.5,29.86,NE,46,4.2,6.9,54,0.00,CLR,,0.66,WeatherDisplay:10.37,2013-09-12 21:37:00,
2013-09-12 17:39:00,77.6,59.1,29.86,North,360,4.9,8.1,53,0.00,CLR,,0.66,WeatherDisplay:10.37,2013-09-12 21:39:00,
2013-09-12 17:40:00,77.6,59.1,29.87,NNE,20,6.1,6.9,53,0.00,CLR,,0.66,WeatherDisplay:10.37,2013-09-12 21:40:00,
2013-09-12 17:41:00,77.6,59.1,29.87,NNE,12,5.6,6.9,53,0.00,CLR,,0.66,WeatherDisplay:10.37,2013-09-12 21:41:00,
2013-09-12 17:42:00,77.5,59.0,29.87,North,360,5.2,8.1,53,0.00,CLR,,0.66,WeatherDisplay:10.37,2013-09-12 21:42:00,
2013-09-12 17:44:00,77.4,59.5,29.87,NNE,12,5.4,6.9,54,0.00,CLR,,0.66,WeatherDisplay:10.37,2013-09-12 21:44:00,
2013-09-12 17:45:00,77.3,59.4,29.87,NNE,16,3.9,6.9,54,0.00,CLR,,0.66,WeatherDisplay:10.37,2013-09-12 21:45:00,
2013-09-12 17:46:00,77.3,59.4,29.87,NNW,330,5.0,7.0,54,0.00,CLR,,0.66,WeatherDisplay:10.37,2013-09-12 21:46:00,
2013-09-12 17:48:00,77.2,59.3,29.87,North,5,6.9,8.1,54,0.00,CLR,,0.66,WeatherDisplay:10.37,2013-09-12 21:48:00,
2013-09-12 17:49:00,77.2,59.3,29.87,North,5,4.9,6.9,54,0.00,CLR,,0.66,WeatherDisplay:10.37,2013-09-12 21:49:00,
2013-09-12 17:50:00,77.2,59.3,29.86,North,5,2.1,5.8,54,0.00,CLR,,0.66,WeatherDisplay:10.37,2013-09-12 21:50:00,
2013-09-12 17:52:00,77.2,59.8,29.87,NE,34,3.3,4.6,55,0.00,CLR,,0.66,WeatherDisplay:10.37,2013-09-12 21:52:00,
2013-09-12 17:53:00,77.3,59.9,29.86,NE,41,2.7,3.5,55,0.00,CLR,,0.66,WeatherDisplay:10.37,2013-09-12 21:53:00,
2013-09-12 17:55:00,77.4,59.9,29.87,North,9,2.0,5.0,55,0.00,CLR,,0.66,WeatherDisplay:10.37,2013-09-12 21:55:00,
2013-09-12 17:56:00,77.5,61.1,29.87,NW,325,0.2,2.3,57,0.00,CLR,,0.66,WeatherDisplay:10.37,2013-09-12 21:56:00,
2013-09-12 17:57:00,77.6,61.2,29.87,NNE,20,2.4,3.5,57,0.00,CLR,,0.66,WeatherDisplay:10.37,2013-09-12 21:57:00,
2013-09-12 17:58:00,77.7,60.8,29.87,North,11,3.9,6.9,56,0.00,CLR,,0.66,WeatherDisplay:10.37,2013-09-12 21:58:00,
2013-09-12 18:00:00,77.8,61.3,29.87,North,10,2.3,4.0,57,0.00,CLR,,0.66,WeatherDisplay:10.37,2013-09-12 22:00:00,
2013-09-12 18:01:00,77.9,60.4,29.87,NW,304,4.4,8.1,55,0.00,CLR,,0.66,WeatherDisplay:10.37,2013-09-12 22:01:00,
2013-09-12 18:02:00,78.1,60.6,29.87,North,355,3.2,6.0,55,0.00,CLR,,0.66,WeatherDisplay:10.37,2013-09-12 22:02:00,
2013-09-12 18:03:00,78.2,59.1,29.87,NW,325,3.6,5.8,52,0.00,CLR,,0.66,WeatherDisplay:10.37,2013-09-12 22:03:00,
2013-09-12 18:05:00,78.3,60.3,29.87,North,355,4.5,9.2,54,0.00,CLR,,0.66,WeatherDisplay:10.37,2013-09-12 22:05:00,
2013-09-12 18:06:00,78.4,59.3,29.87,WNW,300,7.7,10.4,52,0.00,CLR,,0.66,WeatherDisplay:10.37,2013-09-12 22:06:00,
2013-09-12 18:07:00,78.4,58.2,29.87,NNW,338,6.4,10.4,50,0.00,CLR,,0.66,WeatherDisplay:10.37,2013-09-12 22:07:00,
2013-09-12 18:08:00,78.4,57.7,29.87,NNW,339,7.3,10.4,49,0.00,CLR,,0.66,WeatherDisplay:10.37,2013-09-12 22:08:00,
2013-09-12 18:09:00,78.4,57.7,29.87,North,355,5.6,10.4,49,0.00,CLR,,0.66,WeatherDisplay:10.37,2013-09-12 22:09:00,
2013-09-12 18:10:00,78.3,57.0,29.88,North,355,6.4,11.5,48,0.00,CLR,,0.66,WeatherDisplay:10.37,2013-09-12 22:10:00,
2013-09-12 18:11:00,78.3,57.0,29.88,NNW,340,4.5,11.5,48,0.00,CLR,,0.66,WeatherDisplay:10.37,2013-09-12 22:11:00,
2013-09-12 18:12:00,78.3,58.1,29.88,NNW,342,6.0,11.0,50,0.00,CLR,,0.66,WeatherDisplay:10.37,2013-09-12 22:12:00,
2013-09-12 18:13:00,78.2,55.7,29.88,NW,325,9.1,15.0,46,0.00,CLR,,0.66,WeatherDisplay:10.37,2013-09-12 22:13:00,
2013-09-12 18:14:00,78.2,56.3,29.87,NW,307,4.8,11.5,47,0.00,CLR,,0.66,WeatherDisplay:10.37,2013-09-12 22:14:00,
2013-09-12 18:15:00,78.1,56.2,29.88,NNW,339,7.4,11.5,47,0.00,CLR,,0.66,WeatherDisplay:10.37,2013-09-12 22:15:00,
2013-09-12 18:16:00,78.1,55.6,29.88,NNE,29,7.5,10.0,46,0.00,CLR,,0.66,WeatherDisplay:10.37,2013-09-12 22:16:00,
2013-09-12 18:18:00,78.0,56.1,29.88,NNW,336,7.5,12.7,47,0.00,CLR,,0.66,WeatherDisplay:10.37,2013-09-12 22:18:00,
2013-09-12 18:19:00,78.0,56.1,29.88,NNW,328,3.4,6.0,47,0.00,CLR,,0.66,WeatherDisplay:10.37,2013-09-12 22:19:00,
2013-09-12 18:20:00,77.9,56.0,29.88,WNW,302,4.7,8.1,47,0.00,CLR,,0.66,WeatherDisplay:10.37,2013-09-12 22:20:00,
2013-09-12 18:21:00,77.9,56.0,29.88,NW,326,7.9,8.1,47,0.00,CLR,,0.66,WeatherDisplay:10.37,2013-09-12 22:21:00,
2013-09-12 18:23:00,77.8,56.0,29.88,North,355,5.6,10.4,47,0.00,CLR,,0.66,WeatherDisplay:10.37,2013-09-12 22:23:00,
2013-09-12 18:24:00,77.8,56.0,29.88,NW,311,3.8,9.2,47,0.00,CLR,,0.66,WeatherDisplay:10.37,2013-09-12 22:24:00,
2013-09-12 18:25:00,77.7,56.4,29.88,NW,326,5.3,8.0,48,0.00,CLR,,0.66,WeatherDisplay:10.37,2013-09-12 22:25:00,
2013-09-12 18:26:00,77.7,55.9,29.88,NW,309,5.2,9.2,47,0.00,CLR,,0.66,WeatherDisplay:10.37,2013-09-12 22:26:00,
2013-09-12 18:28:00,77.6,56.4,29.88,NNW,346,4.1,8.1,48,0.00,CLR,,0.66,WeatherDisplay:10.37,2013-09-12 22:28:00,
2013-09-12 18:29:00,77.6,56.4,29.88,NNW,336,5.1,8.1,48,0.00,CLR,,0.66,WeatherDisplay:10.37,2013-09-12 22:29:00,
2013-09-12 18:30:00,77.6,56.4,29.88,NW,326,3.6,6.9,48,0.00,CLR,,0.66,WeatherDisplay:10.37,2013-09-12 22:30:00,
2013-09-12 18:32:00,77.5,55.7,29.88,NNE,15,6.3,9.2,47,0.00,CLR,,0.66,WeatherDisplay:10.37,2013-09-12 22:32:00,
2013-09-12 18:34:00,77.4,55.6,29.88,NW,323,8.4,16.1,47,0.00,CLR,,0.66,WeatherDisplay:10.37,2013-09-12 22:34:00,
2013-09-12 18:35:00,77.3,55.5,29.88,North,355,6.6,12.7,47,0.00,CLR,,0.66,WeatherDisplay:10.37,2013-09-12 22:35:00,
2013-09-12 18:37:00,77.1,55.9,29.89,NNW,327,4.6,9.2,48,0.00,CLR,,0.66,WeatherDisplay:10.37,2013-09-12 22:37:00,
2013-09-12 18:40:00,76.9,55.7,29.89,NNW,335,6.4,13.8,48,0.00,CLR,,0.66,WeatherDisplay:10.37,2013-09-12 22:40:00,
2013-09-12 18:41:00,76.9,55.7,29.89,NW,324,6.0,11.5,48,0.00,CLR,,0.66,WeatherDisplay:10.37,2013-09-12 22:41:00,
2013-09-12 18:42:00,76.8,56.2,29.89,NW,325,6.5,12.7,49,0.00,CLR,,0.66,WeatherDisplay:10.37,2013-09-12 22:42:00,
2013-09-12 18:45:00,76.5,56.5,29.89,NNW,340,5.6,6.9,50,0.00,CLR,,0.66,WeatherDisplay:10.37,2013-09-12 22:45:00,
2013-09-12 18:46:00,76.5,56.5,29.89,NNW,347,5.5,10.4,50,0.00,CLR,,0.66,WeatherDisplay:10.37,2013-09-12 22:46:00,
2013-09-12 18:47:00,76.4,56.4,29.89,North,350,4.1,8.1,50,0.00,CLR,,0.66,WeatherDisplay:10.37,2013-09-12 22:47:00,
2013-09-12 18:51:00,76.3,56.3,29.89,NNW,342,3.8,6.9,50,0.00,CLR,,0.66,WeatherDisplay:10.37,2013-09-12 22:51:00,
2013-09-12 18:52:00,76.2,56.2,29.89,WNW,300,9.2,9.2,50,0.00,CLR,,0.66,WeatherDisplay:10.37,2013-09-12 22:52:00,
2013-09-12 18:53:00,76.2,56.2,29.89,NNW,341,9.1,13.8,50,0.00,CLR,,0.66,WeatherDisplay:10.37,2013-09-12 22:53:00,
2013-09-12 18:56:00,75.9,56.5,29.90,NE,48,8.5,15.0,51,0.00,CLR,,0.66,WeatherDisplay:10.37,2013-09-12 22:56:00,
2013-09-12 18:58:00,75.6,56.7,29.90,North,5,6.5,11.5,52,0.00,CLR,,0.66,WeatherDisplay:10.37,2013-09-12 22:58:00,
2013-09-12 19:01:00,75.3,57.0,29.90,NW,324,7.5,12.0,53,0.00,CLR,,0.66,WeatherDisplay:10.37,2013-09-12 23:01:00,
2013-09-12 19:02:00,75.3,57.0,29.90,NW,311,8.8,12.7,53,0.00,CLR,,0.66,WeatherDisplay:10.37,2013-09-12 23:02:00,
2013-09-12 19:03:00,75.2,56.9,29.90,North,10,5.9,10.4,53,0.00,CLR,,0.66,WeatherDisplay:10.37,2013-09-12 23:03:00,
2013-09-12 19:06:00,74.8,57.0,29.90,NW,324,5.3,8.0,54,0.00,CLR,,0.66,WeatherDisplay:10.37,2013-09-12 23:06:00,
2013-09-12 19:07:00,74.8,57.0,29.90,NW,326,5.5,8.1,54,0.00,CLR,,0.66,WeatherDisplay:10.37,2013-09-12 23:07:00,
2013-09-12 19:08:00,74.8,57.5,29.90,NW,325,5.1,9.0,55,0.00,CLR,,0.66,WeatherDisplay:10.37,2013-09-12 23:08:00,
2013-09-12 19:09:00,74.7,57.5,29.90,WNW,298,6.4,14.0,55,0.00,CLR,,0.66,WeatherDisplay:10.37,2013-09-12 23:09:00,
2013-09-12 19:12:00,74.5,57.8,29.90,NW,319,5.3,11.5,56,0.00,CLR,,0.66,WeatherDisplay:10.37,2013-09-12 23:12:00,
2013-09-12 19:13:00,74.4,58.2,29.90,NNW,342,4.8,6.0,57,0.00,CLR,,0.66,WeatherDisplay:10.37,2013-09-12 23:13:00,
2013-09-12 19:14:00,74.4,58.2,29.90,NW,321,7.2,11.5,57,0.00,CLR,,0.66,WeatherDisplay:10.37,2013-09-12 23:14:00,
2013-09-12 19:15:00,74.4,58.1,29.91,NNW,346,7.0,12.0,57,0.00,CLR,,0.66,WeatherDisplay:10.37,2013-09-12 23:15:00,
2013-09-12 19:17:00,74.0,57.8,29.91,NW,320,9.1,11.5,57,0.00,CLR,,0.66,WeatherDisplay:10.37,2013-09-12 23:17:00,
2013-09-12 19:18:00,73.9,57.7,29.91,NNE,26,8.9,11.5,57,0.00,CLR,,0.66,WeatherDisplay:10.37,2013-09-12 23:18:00,
2013-09-12 19:19:00,73.7,57.5,29.91,North,350,9.8,13.8,57,0.00,CLR,,0.66,WeatherDisplay:10.37,2013-09-12 23:19:00,
2013-09-12 19:20:00,73.6,57.4,29.91,North,9,8.8,13.8,57,0.00,CLR,,0.66,WeatherDisplay:10.37,2013-09-12 23:20:00,
2013-09-12 19:22:00,73.3,57.6,29.91,NNW,339,7.9,10.4,58,0.00,CLR,,0.66,WeatherDisplay:10.37,2013-09-12 23:22:00,
2013-09-12 19:24:00,72.8,56.7,29.91,NNW,347,11.5,15.0,57,0.00,CLR,,0.66,WeatherDisplay:10.37,2013-09-12 23:24:00,
2013-09-12 19:25:00,72.7,56.6,29.92,North,5,10.7,13.8,57,0.00,CLR,,0.66,WeatherDisplay:10.37,2013-09-12 23:25:00,
2013-09-12 19:27:00,72.2,56.6,29.92,NNW,341,10.9,13.8,58,0.00,CLR,,0.66,WeatherDisplay:10.37,2013-09-12 23:27:00,
2013-09-12 19:28:00,72.0,55.9,29.92,North,355,10.9,15.0,57,0.00,CLR,,0.66,WeatherDisplay:10.37,2013-09-12 23:28:00,
2013-09-12 19:29:00,71.7,56.1,29.92,NNE,22,8.2,11.5,58,0.00,CLR,,0.66,WeatherDisplay:10.37,2013-09-12 23:29:00,
2013-09-12 19:30:00,71.7,56.6,29.92,North,5,8.1,10.4,59,0.00,CLR,,0.66,WeatherDisplay:10.37,2013-09-12 23:30:00,
2013-09-12 19:32:00,71.4,55.9,29.92,NNE,16,11.9,17.3,58,0.00,CLR,,0.66,WeatherDisplay:10.37,2013-09-12 23:32:00,
2013-09-12 19:33:00,71.2,56.1,29.92,NNW,348,11.7,19.6,59,0.00,CLR,,0.66,WeatherDisplay:10.37,2013-09-12 23:33:00,
2013-09-12 19:34:00,71.1,56.0,29.92,North,9,10.9,12.7,59,0.00,CLR,,0.66,WeatherDisplay:10.37,2013-09-12 23:34:00,
2013-09-12 19:35:00,71.1,56.0,29.92,NNE,28,10.8,15.0,59,0.00,CLR,,0.66,WeatherDisplay:10.37,2013-09-12 23:35:00,
2013-09-12 19:37:00,70.8,56.2,29.93,NNW,344,7.8,11.5,60,0.00,CLR,,0.66,WeatherDisplay:10.37,2013-09-12 23:37:00,
2013-09-12 19:39:00,70.6,56.5,29.93,North,355,7.7,11.5,61,0.00,CLR,,0.66,WeatherDisplay:10.37,2013-09-12 23:39:00,
2013-09-12 19:40:00,70.6,56.5,29.93,NNE,25,9.0,12.7,61,0.00,CLR,,0.66,WeatherDisplay:10.37,2013-09-12 23:40:00,
2013-09-12 19:41:00,70.4,56.3,29.93,North,5,10.2,13.8,61,0.00,CLR,,0.66,WeatherDisplay:10.37,2013-09-12 23:41:00,
2013-09-12 19:42:00,70.3,56.7,29.93,North,5,6.4,12.0,62,0.00,CLR,,0.66,WeatherDisplay:10.37,2013-09-12 23:42:00,
2013-09-12 19:44:00,70.2,56.6,29.93,NNW,340,7.5,12.7,62,0.00,CLR,,0.66,WeatherDisplay:10.37,2013-09-12 23:44:00,
2013-09-12 19:45:00,70.1,56.5,29.93,North,5,7.4,9.2,62,0.00,CLR,,0.66,WeatherDisplay:10.37,2013-09-12 23:45:00,
2013-09-12 19:46:00,70.1,56.9,29.93,NNW,342,8.1,12.7,63,0.00,CLR,,0.66,WeatherDisplay:10.37,2013-09-12 23:46:00,
2013-09-12 19:47:00,70.0,56.8,29.93,NNE,16,9.8,15.0,63,0.00,CLR,,0.66,WeatherDisplay:10.37,2013-09-12 23:47:00,
2013-09-12 19:49:00,69.9,57.2,29.93,NNE,22,10.0,15.0,64,0.00,CLR,,0.66,WeatherDisplay:10.37,2013-09-12 23:49:00,
2013-09-12 19:50:00,69.7,57.4,29.93,NNE,23,7.4,11.5,65,0.00,CLR,,0.66,WeatherDisplay:10.37,2013-09-12 23:50:00,
2013-09-12 19:51:00,69.6,57.3,29.93,NW,325,7.2,10.4,65,0.00,CLR,,0.66,WeatherDisplay:10.37,2013-09-12 23:51:00,
2013-09-12 19:52:00,69.5,57.2,29.93,North,360,9.8,10.4,65,0.00,CLR,,0.66,WeatherDisplay:10.37,2013-09-12 23:52:00,
2013-09-12 19:55:00,69.3,57.0,29.94,North,355,6.5,11.5,65,0.00,CLR,,0.66,WeatherDisplay:10.37,2013-09-12 23:55:00,
2013-09-12 19:56:00,69.2,57.4,29.94,North,355,6.7,10.4,66,0.00,CLR,,0.66,WeatherDisplay:10.37,2013-09-12 23:56:00,
2013-09-12 19:57:00,69.1,57.3,29.94,NNE,28,8.8,11.5,66,0.00,CLR,,0.66,WeatherDisplay:10.37,2013-09-12 23:57:00,
2013-09-12 20:00:00,68.8,57.0,29.94,North,5,7.5,10.4,66,0.00,CLR,,0.66,WeatherDisplay:10.37,2013-09-13 00:00:00,
2013-09-12 20:01:00,68.8,57.0,29.94,North,360,7.1,10.4,66,0.00,CLR,,0.66,WeatherDisplay:10.37,2013-09-13 00:01:00,
2013-09-12 20:02:00,68.6,57.2,29.94,NNW,348,5.5,9.2,67,0.00,CLR,,0.66,WeatherDisplay:10.37,2013-09-13 00:02:00,
2013-09-12 20:05:00,68.4,57.0,29.94,NNW,346,7.0,10.4,67,0.00,CLR,,0.66,WeatherDisplay:10.37,2013-09-13 00:05:00,
2013-09-12 20:06:00,68.4,57.0,29.94,North,11,7.6,11.5,67,0.00,CLR,,0.66,WeatherDisplay:10.37,2013-09-13 00:06:00,
2013-09-12 20:07:00,68.3,56.9,29.94,NNE,21,6.6,9.2,67,0.00,CLR,,0.66,WeatherDisplay:10.37,2013-09-13 00:07:00,
2013-09-12 20:08:00,68.3,56.9,29.94,North,9,7.2,11.5,67,0.00,CLR,,0.66,WeatherDisplay:10.37,2013-09-13 00:08:00,
2013-09-12 20:10:00,68.1,56.3,29.94,NNW,342,8.5,15.0,66,0.00,CLR,,0.66,WeatherDisplay:10.37,2013-09-13 00:10:00,
2013-09-12 20:11:00,68.1,56.3,29.94,North,5,7.8,11.5,66,0.00,CLR,,0.66,WeatherDisplay:10.37,2013-09-13 00:11:00,
2013-09-12 20:12:00,68.1,56.3,29.94,NNE,17,7.8,11.5,66,0.00,CLR,,0.66,WeatherDisplay:10.37,2013-09-13 00:12:00,
2013-09-12 20:13:00,68.1,56.3,29.94,NNE,17,7.6,11.5,66,0.00,CLR,,0.66,WeatherDisplay:10.37,2013-09-13 00:13:00,
2013-09-12 20:15:00,67.9,56.1,29.94,NNW,338,8.2,11.5,66,0.00,CLR,,0.66,WeatherDisplay:10.37,2013-09-13 00:15:00,
2013-09-12 20:16:00,67.9,56.1,29.94,North,5,7.7,11.5,66,0.00,CLR,,0.66,WeatherDisplay:10.37,2013-09-13 00:16:00,
2013-09-12 20:18:00,67.8,56.0,29.94,NNE,28,7.7,11.5,66,0.00,CLR,,0.66,WeatherDisplay:10.37,2013-09-13 00:18:00,
2013-09-12 20:19:00,67.8,55.6,29.95,North,5,7.3,9.2,65,0.00,CLR,,0.66,WeatherDisplay:10.37,2013-09-13 00:19:00,
2013-09-12 20:21:00,67.7,55.9,29.95,NW,324,5.7,8.1,66,0.00,CLR,,0.66,WeatherDisplay:10.37,2013-09-13 00:21:00,
2013-09-12 20:22:00,67.7,55.5,29.95,North,350,7.1,9.2,65,0.00,CLR,,0.66,WeatherDisplay:10.37,2013-09-13 00:22:00,
2013-09-12 20:23:00,67.6,55.8,29.95,North,360,6.0,9.2,66,0.00,CLR,,0.66,WeatherDisplay:10.37,2013-09-13 00:23:00,
2013-09-12 20:24:00,67.5,55.7,29.95,NNW,344,5.0,6.9,66,0.00,CLR,,0.66,WeatherDisplay:10.37,2013-09-13 00:24:00,
2013-09-12 20:26:00,67.4,55.6,29.95,North,360,5.5,8.1,66,0.00,CLR,,0.66,WeatherDisplay:10.37,2013-09-13 00:26:00,
2013-09-12 20:27:00,67.4,55.6,29.95,NNW,338,4.7,6.9,66,0.00,CLR,,0.66,WeatherDisplay:10.37,2013-09-13 00:27:00,
2013-09-12 20:28:00,67.3,55.5,29.95,NW,325,3.6,5.0,66,0.00,CLR,,0.66,WeatherDisplay:10.37,2013-09-13 00:28:00,
2013-09-12 20:29:00,67.2,55.5,29.95,NW,321,3.6,5.8,66,0.00,CLR,,0.66,WeatherDisplay:10.37,2013-09-13 00:29:00,
2013-09-12 20:30:00,67.2,55.5,29.95,North,10,4.0,6.0,66,0.00,CLR,,0.66,WeatherDisplay:10.37,2013-09-13 00:30:00,
2013-09-12 20:31:00,67.1,55.4,29.95,NNE,26,5.9,9.2,66,0.00,CLR,,0.66,WeatherDisplay:10.37,2013-09-13 00:31:00,
2013-09-12 20:32:00,67.0,55.3,29.95,NNE,24,5.6,9.2,66,0.00,CLR,,0.66,WeatherDisplay:10.37,2013-09-13 00:32:00,
2013-09-12 20:33:00,67.0,55.3,29.95,NW,324,3.9,7.0,66,0.00,CLR,,0.66,WeatherDisplay:10.37,2013-09-13 00:33:00,
2013-09-12 20:35:00,66.9,55.2,29.95,North,360,5.5,9.2,66,0.00,CLR,,0.66,WeatherDisplay:10.37,2013-09-13 00:35:00,
2013-09-12 20:36:00,66.9,55.2,29.96,NNE,13,4.7,8.1,66,0.00,CLR,,0.66,WeatherDisplay:10.37,2013-09-13 00:36:00,
2013-09-12 20:37:00,66.8,55.1,29.96,North,351,5.0,6.9,66,0.00,CLR,,0.66,WeatherDisplay:10.37,2013-09-13 00:37:00,
2013-09-12 20:38:00,66.8,55.1,29.96,NNE,17,5.1,6.0,66,0.00,CLR,,0.66,WeatherDisplay:10.37,2013-09-13 00:38:00,
2013-09-12 20:39:00,66.7,55.0,29.96,North,360,4.7,6.9,66,0.00,CLR,,0.66,WeatherDisplay:10.37,2013-09-13 00:39:00,
2013-09-12 20:41:00,66.6,54.9,29.96,North,355,3.7,4.6,66,0.00,CLR,,0.66,WeatherDisplay:10.37,2013-09-13 00:41:00,
2013-09-12 20:42:00,66.6,54.9,29.96,NNE,20,3.9,7.0,66,0.00,CLR,,0.66,WeatherDisplay:10.37,2013-09-13 00:42:00,
2013-09-12 20:43:00,66.5,54.8,29.96,NNW,342,4.0,6.9,66,0.00,CLR,,0.66,WeatherDisplay:10.37,2013-09-13 00:43:00,
2013-09-12 20:44:00,66.4,54.7,29.96,North,360,4.3,6.0,66,0.00,CLR,,0.66,WeatherDisplay:10.37,2013-09-13 00:44:00,
2013-09-12 20:46:00,66.3,54.6,29.96,NNE,12,4.1,5.8,66,0.00,CLR,,0.66,WeatherDisplay:10.37,2013-09-13 00:46:00,
2013-09-12 20:47:00,66.3,54.6,29.96,NNE,17,4.3,5.8,66,0.00,CLR,,0.66,WeatherDisplay:10.37,2013-09-13 00:47:00,
2013-09-12 20:48:00,66.2,54.5,29.96,NNE,18,4.7,6.9,66,0.00,CLR,,0.66,WeatherDisplay:10.37,2013-09-13 00:48:00,
2013-09-12 20:49:00,66.1,54.4,29.96,NW,320,3.6,5.8,66,0.00,CLR,,0.66,WeatherDisplay:10.37,2013-09-13 00:49:00,
2013-09-12 20:52:00,65.9,54.6,29.97,North,10,3.7,4.6,67,0.00,CLR,,0.66,WeatherDisplay:10.37,2013-09-13 00:52:00,
2013-09-12 20:53:00,65.9,54.6,29.97,NNW,333,3.5,7.0,67,0.00,CLR,,0.66,WeatherDisplay:10.37,2013-09-13 00:53:00,
2013-09-12 20:54:00,65.8,54.5,29.97,NNW,335,4.9,6.9,67,0.00,CLR,,0.66,WeatherDisplay:10.37,2013-09-13 00:54:00,
2013-09-12 20:57:00,65.6,54.8,29.97,North,360,2.9,5.8,68,0.00,CLR,,0.66,WeatherDisplay:10.37,2013-09-13 00:57:00,
2013-09-12 20:58:00,65.6,54.8,29.97,North,5,2.8,5.8,68,0.00,CLR,,0.66,WeatherDisplay:10.37,2013-09-13 00:58:00,
2013-09-12 21:00:00,65.4,54.6,29.97,North,9,3.2,4.6,68,0.00,CLR,,0.66,WeatherDisplay:10.37,2013-09-13 01:00:00,
2013-09-12 21:03:00,65.3,54.9,29.97,NW,321,3.8,4.6,69,0.00,CLR,,0.66,WeatherDisplay:10.37,2013-09-13 01:03:00,
2013-09-12 21:04:00,65.2,54.4,29.97,NNW,334,3.4,5.8,68,0.00,CLR,,0.66,WeatherDisplay:10.37,2013-09-13 01:04:00,
2013-09-12 21:05:00,65.1,54.7,29.97,North,349,4.1,4.6,69,0.00,CLR,,0.66,WeatherDisplay:10.37,2013-09-13 01:05:00,
2013-09-12 21:08:00,65.0,54.2,29.97,North,355,5.4,7.0,68,0.00,CLR,,0.66,WeatherDisplay:10.37,2013-09-13 01:08:00,
2013-09-12 21:09:00,65.0,54.2,29.98,North,11,5.1,6.9,68,0.00,CLR,,0.66,WeatherDisplay:10.37,2013-09-13 01:09:00,
2013-09-12 21:11:00,64.9,54.1,29.98,NNE,13,5.8,6.9,68,0.00,CLR,,0.66,WeatherDisplay:10.37,2013-09-13 01:11:00,
2013-09-12 21:13:00,64.9,54.1,29.98,North,355,5.5,8.1,68,0.00,CLR,,0.66,WeatherDisplay:10.37,2013-09-13 01:13:00,
2013-09-12 21:14:00,64.9,54.1,29.98,North,5,5.9,7.0,68,0.00,CLR,,0.66,WeatherDisplay:10.37,2013-09-13 01:14:00,
2013-09-12 21:16:00,64.9,54.1,29.98,NNW,346,5.2,8.1,68,0.00,CLR,,0.66,WeatherDisplay:10.37,2013-09-13 01:16:00,
2013-09-12 21:17:00,64.9,54.5,29.98,NNW,346,4.2,5.8,69,0.00,CLR,,0.66,WeatherDisplay:10.37,2013-09-13 01:17:00,
2013-09-12 21:18:00,64.9,54.5,29.98,NNW,337,4.7,5.0,69,0.00,CLR,,0.66,WeatherDisplay:10.37,2013-09-13 01:18:00,
2013-09-12 21:19:00,64.9,54.5,29.98,North,11,4.8,4.8,69,0.00,CLR,,0.66,WeatherDisplay:10.37,2013-09-13 01:19:00,
2013-09-12 21:21:00,64.7,54.3,29.98,NNE,15,4.0,7.0,69,0.00,CLR,,0.66,WeatherDisplay:10.37,2013-09-13 01:21:00,
2013-09-12 21:23:00,64.7,54.3,29.98,North,5,4.0,5.8,69,0.00,CLR,,0.66,WeatherDisplay:10.37,2013-09-13 01:23:00,
2013-09-12 21:24:00,64.6,54.2,29.99,NNW,346,3.7,5.8,69,0.00,CLR,,0.66,WeatherDisplay:10.37,2013-09-13 01:24:00,
2013-09-12 21:25:00,64.5,54.5,29.99,NNE,14,3.7,5.8,70,0.00,CLR,,0.66,WeatherDisplay:10.37,2013-09-13 01:25:00,
2013-09-12 21:28:00,64.3,54.3,29.99,NNE,16,3.4,6.0,70,0.00,CLR,,0.66,WeatherDisplay:10.37,2013-09-13 01:28:00,
2013-09-12 21:29:00,64.3,54.3,29.99,North,11,4.7,6.9,70,0.00,CLR,,0.66,WeatherDisplay:10.37,2013-09-13 01:29:00,
2013-09-12 21:30:00,64.2,54.6,29.99,NNE,22,4.7,6.9,71,0.00,CLR,,0.66,WeatherDisplay:10.37,2013-09-13 01:30:00,
2013-09-12 21:34:00,64.1,54.5,29.99,NNW,346,4.2,9.0,71,0.00,CLR,,0.66,WeatherDisplay:10.37,2013-09-13 01:34:00,
2013-09-12 21:35:00,64.1,54.5,29.99,NNW,342,4.8,9.2,71,0.00,CLR,,0.66,WeatherDisplay:10.37,2013-09-13 01:35:00,
2013-09-12 21:39:00,64.0,54.8,29.99,NNW,343,4.0,5.0,72,0.00,CLR,,0.66,WeatherDisplay:10.37,2013-09-13 01:39:00,
2013-09-12 21:40:00,63.9,54.7,29.99,North,349,4.9,6.0,72,0.00,CLR,,0.66,WeatherDisplay:10.37,2013-09-13 01:40:00,
2013-09-12 21:42:00,63.8,54.6,29.99,NNW,344,5.3,8.1,72,0.00,CLR,,0.66,WeatherDisplay:10.37,2013-09-13 01:42:00,
2013-09-12 21:43:00,63.8,54.6,29.99,NNW,333,5.1,8.1,72,0.00,CLR,,0.66,WeatherDisplay:10.37,2013-09-13 01:43:00,
2013-09-12 21:44:00,63.8,54.6,29.99,NE,40,4.5,5.8,72,0.00,CLR,,0.66,WeatherDisplay:10.37,2013-09-13 01:44:00,
2013-09-12 21:45:00,63.7,54.5,29.99,NNW,333,5.6,5.8,72,0.00,CLR,,0.66,WeatherDisplay:10.37,2013-09-13 01:45:00,
2013-09-12 21:46:00,63.7,54.5,29.99,North,349,5.5,8.1,72,0.00,CLR,,0.66,WeatherDisplay:10.37,2013-09-13 01:46:00,
2013-09-12 21:48:00,63.6,54.4,29.99,North,355,3.5,4.6,72,0.00,CLR,,0.66,WeatherDisplay:10.37,2013-09-13 01:48:00,
2013-09-12 21:49:00,63.6,54.4,29.99,NNW,338,5.0,7.0,72,0.00,CLR,,0.66,WeatherDisplay:10.37,2013-09-13 01:49:00,
2013-09-12 21:50:00,63.6,54.4,29.99,NNW,340,5.3,6.9,72,0.00,CLR,,0.66,WeatherDisplay:10.37,2013-09-13 01:50:00,
2013-09-12 21:52:00,63.6,54.4,29.99,NNW,344,5.1,9.2,72,0.00,CLR,,0.66,WeatherDisplay:10.37,2013-09-13 01:52:00,
2013-09-12 21:53:00,63.6,54.4,29.99,North,349,4.2,6.9,72,0.00,CLR,,0.66,WeatherDisplay:10.37,2013-09-13 01:53:00,
2013-09-12 21:54:00,63.6,54.4,29.99,North,5,5.4,8.1,72,0.00,CLR,,0.66,WeatherDisplay:10.37,2013-09-13 01:54:00,
2013-09-12 21:55:00,63.6,54.4,29.99,NNE,18,5.3,8.1,72,0.00,CLR,,0.66,WeatherDisplay:10.37,2013-09-13 01:55:00,
2013-09-12 21:57:00,63.5,54.3,29.99,NNW,341,4.8,6.0,72,0.00,CLR,,0.66,WeatherDisplay:10.37,2013-09-13 01:57:00,
2013-09-12 21:58:00,63.5,54.3,29.99,NNW,327,5.1,6.0,72,0.00,CLR,,0.66,WeatherDisplay:10.37,2013-09-13 01:58:00,
2013-09-12 21:59:00,63.4,54.2,29.99,North,355,4.3,6.9,72,0.00,CLR,,0.66,WeatherDisplay:10.37,2013-09-13 01:59:00,
2013-09-12 22:00:00,63.4,54.2,29.99,North,355,4.0,6.9,72,0.00,CLR,,0.66,WeatherDisplay:10.37,2013-09-13 02:00:00,
2013-09-12 22:02:00,63.3,54.1,29.99,North,349,4.6,5.8,72,0.00,CLR,,0.66,WeatherDisplay:10.37,2013-09-13 02:02:00,
2013-09-12 22:03:00,63.2,54.0,29.99,North,360,3.4,5.8,72,0.00,CLR,,0.66,WeatherDisplay:10.37,2013-09-13 02:03:00,
2013-09-12 22:04:00,63.2,54.0,29.99,North,9,3.3,5.8,72,0.00,CLR,,0.66,WeatherDisplay:10.37,2013-09-13 02:04:00,
2013-09-12 22:05:00,63.2,54.4,29.99,North,359,3.0,8.0,73,0.00,CLR,,0.66,WeatherDisplay:10.37,2013-09-13 02:05:00,
2013-09-12 22:08:00,63.0,53.8,29.99,North,360,5.5,6.9,72,0.00,CLR,,0.66,WeatherDisplay:10.37,2013-09-13 02:08:00,
2013-09-12 22:09:00,63.0,53.8,29.99,North,360,3.7,4.6,72,0.00,CLR,,0.66,WeatherDisplay:10.37,2013-09-13 02:09:00,
2013-09-12 22:10:00,63.0,53.8,29.99,NNW,340,3.7,4.6,72,0.00,CLR,,0.66,WeatherDisplay:10.37,2013-09-13 02:10:00,
2013-09-12 22:11:00,62.9,53.7,29.99,North,360,3.4,5.0,72,0.00,CLR,,0.66,WeatherDisplay:10.37,2013-09-13 02:11:00,
2013-09-12 22:14:00,62.7,53.5,30.00,North,11,3.8,6.9,72,0.00,CLR,,0.66,WeatherDisplay:10.37,2013-09-13 02:14:00,
2013-09-12 22:15:00,62.7,53.5,30.00,North,351,3.8,6.9,72,0.00,CLR,,0.66,WeatherDisplay:10.37,2013-09-13 02:15:00,
2013-09-12 22:16:00,62.6,53.4,30.00,North,355,3.9,6.0,72,0.00,CLR,,0.66,WeatherDisplay:10.37,2013-09-13 02:16:00,
2013-09-12 22:20:00,62.5,53.3,30.00,North,355,3.0,7.0,72,0.00,CLR,,0.66,WeatherDisplay:10.37,2013-09-13 02:20:00,
2013-09-12 22:21:00,62.4,53.3,30.00,NNE,14,3.1,4.6,72,0.00,CLR,,0.66,WeatherDisplay:10.37,2013-09-13 02:21:00,
2013-09-12 22:24:00,62.3,53.2,30.00,North,11,2.5,4.6,72,0.00,CLR,,0.66,WeatherDisplay:10.37,2013-09-13 02:24:00,
2013-09-12 22:25:00,62.2,53.4,30.00,North,11,2.8,4.6,73,0.00,CLR,,0.66,WeatherDisplay:10.37,2013-09-13 02:25:00,
2013-09-12 22:27:00,62.2,53.1,30.00,NNW,348,2.6,4.0,72,0.00,CLR,,0.66,WeatherDisplay:10.37,2013-09-13 02:27:00,
2013-09-12 22:29:00,62.1,53.0,30.00,North,9,2.8,4.6,72,0.00,CLR,,0.66,WeatherDisplay:10.37,2013-09-13 02:29:00,
2013-09-12 22:30:00,62.0,52.9,30.00,NNE,16,3.3,4.6,72,0.00,CLR,,0.66,WeatherDisplay:10.37,2013-09-13 02:30:00,
2013-09-12 22:32:00,62.0,52.9,30.00,North,360,3.2,4.6,72,0.00,CLR,,0.66,WeatherDisplay:10.37,2013-09-13 02:32:00,
2013-09-12 22:34:00,61.9,52.8,30.00,North,355,2.9,4.6,72,0.00,CLR,,0.66,WeatherDisplay:10.37,2013-09-13 02:34:00,
2013-09-12 22:35:00,61.8,52.7,30.00,North,350,3.0,3.5,72,0.00,CLR,,0.66,WeatherDisplay:10.37,2013-09-13 02:35:00,
2013-09-12 22:36:00,61.8,52.7,30.00,North,10,3.0,3.5,72,0.00,CLR,,0.66,WeatherDisplay:10.37,2013-09-13 02:36:00,
2013-09-12 22:37:00,61.7,52.6,30.00,North,355,2.5,3.5,72,0.00,CLR,,0.66,WeatherDisplay:10.37,2013-09-13 02:37:00,
2013-09-12 22:40:00,61.5,52.8,30.00,North,5,1.2,3.5,73,0.00,CLR,,0.66,WeatherDisplay:10.37,2013-09-13 02:40:00,
2013-09-12 22:41:00,61.5,52.8,30.00,North,360,1.7,3.5,73,0.00,CLR,,0.66,WeatherDisplay:10.37,2013-09-13 02:41:00,
2013-09-12 22:42:00,61.4,53.0,30.00,NNE,15,1.8,3.5,74,0.00,CLR,,0.66,WeatherDisplay:10.37,2013-09-13 02:42:00,
2013-09-12 22:43:00,61.4,52.7,30.00,NNW,344,2.5,3.5,73,0.00,CLR,,0.66,WeatherDisplay:10.37,2013-09-13 02:43:00,
2013-09-12 22:45:00,61.2,52.5,30.00,North,360,2.8,3.5,73,0.00,CLR,,0.66,WeatherDisplay:10.37,2013-09-13 02:45:00,
2013-09-12 22:46:00,61.2,52.5,30.00,NNW,338,2.8,3.5,73,0.00,CLR,,0.66,WeatherDisplay:10.37,2013-09-13 02:46:00,
2013-09-12 22:47:00,61.2,52.8,30.00,NNW,336,1.9,3.5,74,0.00,CLR,,0.66,WeatherDisplay:10.37,2013-09-13 02:47:00,
2013-09-12 22:48:00,61.1,52.7,30.00,NNE,16,2.6,3.5,74,0.00,CLR,,0.66,WeatherDisplay:10.37,2013-09-13 02:48:00,
2013-09-12 22:50:00,61.0,53.0,30.00,North,5,2.3,3.5,75,0.00,CLR,,0.66,WeatherDisplay:10.37,2013-09-13 02:50:00,
2013-09-12 22:51:00,61.0,53.0,30.01,NNW,331,2.0,3.5,75,0.00,CLR,,0.66,WeatherDisplay:10.37,2013-09-13 02:51:00,
2013-09-12 22:52:00,60.9,52.9,30.01,North,5,1.8,3.5,75,0.00,CLR,,0.66,WeatherDisplay:10.37,2013-09-13 02:52:00,
2013-09-12 22:54:00,60.8,52.8,30.01,North,360,0.3,3.5,75,0.00,CLR,,0.66,WeatherDisplay:10.37,2013-09-13 02:54:00,
2013-09-12 22:55:00,60.7,52.7,30.01,NNW,346,1.6,3.5,75,0.00,CLR,,0.66,WeatherDisplay:10.37,2013-09-13 02:55:00,
2013-09-12 22:56:00,60.7,52.7,30.01,North,355,2.2,3.5,75,0.00,CLR,,0.66,WeatherDisplay:10.37,2013-09-13 02:56:00,
2013-09-12 22:57:00,60.6,52.6,30.01,North,355,1.9,3.5,75,0.00,CLR,,0.66,WeatherDisplay:10.37,2013-09-13 02:57:00,
2013-09-12 22:58:00,60.6,52.6,30.01,NNW,328,1.7,3.5,75,0.00,CLR,,0.66,WeatherDisplay:10.37,2013-09-13 02:58:00,
2013-09-12 22:59:00,60.5,52.9,30.01,North,360,2.1,3.5,76,0.00,CLR,,0.66,WeatherDisplay:10.37,2013-09-13 02:59:00,
2013-09-12 23:00:00,60.5,52.9,30.01,NNE,17,1.7,4.0,76,0.00,CLR,,0.66,WeatherDisplay:10.37,2013-09-13 03:00:00,
2013-09-12 23:01:00,60.4,52.8,30.01,NNW,343,1.2,3.5,76,0.00,CLR,,0.66,WeatherDisplay:10.37,2013-09-13 03:01:00,
2013-09-12 23:02:00,60.4,52.8,30.01,North,355,1.2,2.3,76,0.00,CLR,,0.66,WeatherDisplay:10.37,2013-09-13 03:02:00,
2013-09-12 23:04:00,60.4,52.8,30.01,North,351,1.0,3.5,76,0.00,CLR,,0.66,WeatherDisplay:10.37,2013-09-13 03:04:00,
2013-09-12 23:05:00,60.3,52.7,30.01,North,355,0.9,2.3,76,0.00,CLR,,0.66,WeatherDisplay:10.37,2013-09-13 03:05:00,
2013-09-12 23:06:00,60.3,52.7,30.01,North,355,0.7,2.3,76,0.00,CLR,,0.66,WeatherDisplay:10.37,2013-09-13 03:06:00,
2013-09-12 23:07:00,60.3,52.7,30.01,North,355,0.3,2.3,76,0.00,CLR,,0.66,WeatherDisplay:10.37,2013-09-13 03:07:00,
2013-09-12 23:10:00,60.2,53.0,30.01,North,350,2.0,2.3,77,0.00,CLR,,0.66,WeatherDisplay:10.37,2013-09-13 03:10:00,
2013-09-12 23:11:00,60.2,53.0,30.01,North,355,1.1,3.5,77,0.00,CLR,,0.66,WeatherDisplay:10.37,2013-09-13 03:11:00,
2013-09-12 23:12:00,60.2,53.0,30.01,North,355,1.3,3.5,77,0.00,CLR,,0.66,WeatherDisplay:10.37,2013-09-13 03:12:00,
2013-09-12 23:15:00,60.1,52.9,30.01,North,351,1.4,2.3,77,0.00,CLR,,0.66,WeatherDisplay:10.37,2013-09-13 03:15:00,
2013-09-12 23:16:00,60.0,52.8,30.01,North,5,1.9,3.5,77,0.00,CLR,,0.66,WeatherDisplay:10.37,2013-09-13 03:16:00,
2013-09-12 23:17:00,60.0,52.8,30.01,North,355,2.1,3.5,77,0.00,CLR,,0.66,WeatherDisplay:10.37,2013-09-13 03:17:00,
2013-09-12 23:21:00,59.9,53.0,30.01,North,5,1.9,3.5,78,0.00,CLR,,0.66,WeatherDisplay:10.37,2013-09-13 03:21:00,
2013-09-12 23:22:00,59.9,53.0,30.01,North,5,0.7,2.3,78,0.00,CLR,,0.66,WeatherDisplay:10.37,2013-09-13 03:22:00,
2013-09-12 23:26:00,59.8,52.9,30.01,North,5,0.2,1.1,78,0.00,CLR,,0.66,WeatherDisplay:10.37,2013-09-13 03:26:00,
2013-09-12 23:27:00,59.8,52.9,30.01,North,5,0.1,1.1,78,0.00,CLR,,0.66,WeatherDisplay:10.37,2013-09-13 03:27:00,
2013-09-12 23:28:00,59.8,53.3,30.01,North,5,0.0,0.0,79,0.00,CLR,,0.66,WeatherDisplay:10.37,2013-09-13 03:28:00,
2013-09-12 23:31:00,59.7,53.2,30.01,North,5,0.0,1.1,79,0.00,CLR,,0.66,WeatherDisplay:10.37,2013-09-13 03:31:00,
2013-09-12 23:32:00,59.6,53.1,30.01,North,5,0.0,0.0,79,0.00,CLR,,0.66,WeatherDisplay:10.37,2013-09-13 03:32:00,
2013-09-12 23:33:00,59.6,53.1,30.01,North,5,0.0,0.0,79,0.00,CLR,,0.66,WeatherDisplay:10.37,2013-09-13 03:33:00,
2013-09-12 23:34:00,59.6,53.1,30.01,North,5,0.0,0.0,79,0.00,CLR,,0.66,WeatherDisplay:10.37,2013-09-13 03:34:00,
2013-09-12 23:36:00,59.5,53.0,30.01,North,5,0.0,0.0,79,0.00,CLR,,0.66,WeatherDisplay:10.37,2013-09-13 03:36:00,
2013-09-12 23:37:00,59.5,53.3,30.01,North,5,0.0,0.0,80,0.00,CLR,,0.66,WeatherDisplay:10.37,2013-09-13 03:37:00,
2013-09-12 23:38:00,59.5,53.3,30.01,North,5,0.0,0.0,80,0.00,CLR,,0.66,WeatherDisplay:10.37,2013-09-13 03:38:00,
2013-09-12 23:39:00,59.4,53.2,30.02,North,5,0.0,0.0,80,0.00,CLR,,0.66,WeatherDisplay:10.37,2013-09-13 03:39:00,
2013-09-12 23:41:00,59.3,53.1,30.02,North,5,0.0,0.0,80,0.00,CLR,,0.66,WeatherDisplay:10.37,2013-09-13 03:41:00,
2013-09-12 23:42:00,59.3,53.1,30.02,North,5,0.0,0.0,80,0.00,CLR,,0.66,WeatherDisplay:10.37,2013-09-13 03:42:00,
2013-09-12 23:43:00,59.2,53.0,30.02,North,5,0.0,0.0,80,0.00,CLR,,0.66,WeatherDisplay:10.37,2013-09-13 03:43:00,
2013-09-12 23:44:00,59.2,53.0,30.02,North,5,0.0,0.0,80,0.00,CLR,,0.66,WeatherDisplay:10.37,2013-09-13 03:44:00,
2013-09-12 23:46:00,59.0,52.8,30.02,North,5,0.0,0.0,80,0.00,CLR,,0.66,WeatherDisplay:10.37,2013-09-13 03:46:00,
2013-09-12 23:48:00,58.9,53.1,30.02,North,5,0.0,0.0,81,0.00,CLR,,0.66,WeatherDisplay:10.37,2013-09-13 03:48:00,
2013-09-12 23:49:00,58.8,53.0,30.02,North,5,0.0,0.0,81,0.00,CLR,,0.66,WeatherDisplay:10.37,2013-09-13 03:49:00,
2013-09-12 23:50:00,58.8,53.0,30.02,North,5,0.0,0.0,81,0.00,CLR,,0.66,WeatherDisplay:10.37,2013-09-13 03:50:00,
2013-09-12 23:52:00,58.7,53.2,30.02,North,355,0.0,0.0,82,0.00,CLR,,0.66,WeatherDisplay:10.37,2013-09-13 03:52:00,
2013-09-12 23:53:00,58.6,53.1,30.02,North,355,0.0,0.0,82,0.00,CLR,,0.66,WeatherDisplay:10.37,2013-09-13 03:53:00,
2013-09-12 23:54:00,58.6,53.1,30.02,North,355,0.0,0.0,82,0.00,CLR,,0.66,WeatherDisplay:10.37,2013-09-13 03:54:00,
2013-09-12 23:55:00,58.5,53.0,30.02,NNW,344,0.0,1.1,82,0.00,CLR,,0.66,WeatherDisplay:10.37,2013-09-13 03:55:00,
2013-09-12 23:57:00,58.4,52.9,30.02,NNW,344,0.0,0.0,82,0.00,CLR,,0.66,WeatherDisplay:10.37,2013-09-13 03:57:00,
2013-09-12 23:59:00,58.4,53.3,30.02,NNW,344,0.0,0.0,83,0.00,CLR,,0.66,WeatherDisplay:10.37,2013-09-13 03:59:00,